<?xml version="1.0" encoding="UTF-8" standalone="no" ?>
<gpx xmlns="http://www.topografix.com/GPX/1/1" xmlns:xsi="http://www.w3.org/2001/XMLSchema-instance" xsi:schemaLocation="http://www.topografix.com/GPX/1/1 http://www.topografix.com/GPX/1/1/gpx.xsd" version="1.1" creator="VisuGPX - https://www.visugpx.com">
  <metadata>
    <name>ESCAPADE-Pilat-Etape3-Boucles1, 2, 3, 4</name>
  </metadata>
  <trk>
    <name><![CDATA[Echappée équestre du crêt du pilat]]></name>
    <extensions>
      <line xmlns="http://www.topografix.com/GPX/gpx_style/0/2">
        <color>0000FF</color>
        <width>4</width>
      </line>
    </extensions>
    <trkseg>
      <trkpt lat="45.39086" lon="4.48093">
        <ele>1045</ele>
        <time>2021-06-09T16:56:21+02:00</time>
      </trkpt>
      <trkpt lat="45.39008" lon="4.48189">
        <ele>1039</ele>
        <time>2021-06-09T16:56:26+02:00</time>
      </trkpt>
      <trkpt lat="45.38942" lon="4.48273">
        <ele>1037</ele>
        <time>2021-06-09T16:56:31+02:00</time>
      </trkpt>
      <trkpt lat="45.38869" lon="4.48363">
        <ele>1041</ele>
        <time>2021-06-09T16:56:36+02:00</time>
      </trkpt>
      <trkpt lat="45.38844" lon="4.4839">
        <ele>1043</ele>
        <time>2021-06-09T16:56:41+02:00</time>
      </trkpt>
      <trkpt lat="45.38826" lon="4.48384">
        <ele>1045</ele>
        <time>2021-06-09T16:56:46+02:00</time>
      </trkpt>
      <trkpt lat="45.38687" lon="4.48495">
        <ele>1069</ele>
        <time>2021-06-09T16:56:51+02:00</time>
      </trkpt>
      <trkpt lat="45.38583" lon="4.48616">
        <ele>1093</ele>
        <time>2021-06-09T16:56:56+02:00</time>
      </trkpt>
      <trkpt lat="45.38503" lon="4.48735">
        <ele>1088</ele>
        <time>2021-06-09T16:57:01+02:00</time>
      </trkpt>
      <trkpt lat="45.38456" lon="4.4882">
        <ele>1086</ele>
        <time>2021-06-09T16:57:06+02:00</time>
      </trkpt>
      <trkpt lat="45.38385" lon="4.48919">
        <ele>1089</ele>
        <time>2021-06-09T16:57:11+02:00</time>
      </trkpt>
      <trkpt lat="45.38347" lon="4.48967">
        <ele>1088</ele>
        <time>2021-06-09T16:57:16+02:00</time>
      </trkpt>
      <trkpt lat="45.38304" lon="4.49007">
        <ele>1088</ele>
        <time>2021-06-09T16:57:21+02:00</time>
      </trkpt>
      <trkpt lat="45.38206" lon="4.49086">
        <ele>1093</ele>
        <time>2021-06-09T16:57:26+02:00</time>
      </trkpt>
      <trkpt lat="45.38129" lon="4.4914">
        <ele>1100</ele>
        <time>2021-06-09T16:57:31+02:00</time>
      </trkpt>
      <trkpt lat="45.38116" lon="4.49131">
        <ele>1100</ele>
        <time>2021-06-09T16:57:36+02:00</time>
      </trkpt>
      <trkpt lat="45.38052" lon="4.49178">
        <ele>1103</ele>
        <time>2021-06-09T16:57:41+02:00</time>
      </trkpt>
      <trkpt lat="45.37991" lon="4.49217">
        <ele>1107</ele>
        <time>2021-06-09T16:57:46+02:00</time>
      </trkpt>
      <trkpt lat="45.37927" lon="4.4928">
        <ele>1115</ele>
        <time>2021-06-09T16:57:51+02:00</time>
      </trkpt>
      <trkpt lat="45.37884" lon="4.49361">
        <ele>1120</ele>
        <time>2021-06-09T16:57:56+02:00</time>
      </trkpt>
      <trkpt lat="45.37815" lon="4.49467">
        <ele>1128</ele>
        <time>2021-06-09T16:58:01+02:00</time>
      </trkpt>
      <trkpt lat="45.37748" lon="4.49549">
        <ele>1132</ele>
        <time>2021-06-09T16:58:06+02:00</time>
      </trkpt>
      <trkpt lat="45.37717" lon="4.49603">
        <ele>1135</ele>
        <time>2021-06-09T16:58:11+02:00</time>
      </trkpt>
      <trkpt lat="45.37735" lon="4.49652">
        <ele>1133</ele>
        <time>2021-06-09T16:58:16+02:00</time>
      </trkpt>
      <trkpt lat="45.3774" lon="4.49701">
        <ele>1131</ele>
        <time>2021-06-09T16:58:21+02:00</time>
      </trkpt>
      <trkpt lat="45.3774" lon="4.49827">
        <ele>1132</ele>
        <time>2021-06-09T16:58:26+02:00</time>
      </trkpt>
      <trkpt lat="45.37756" lon="4.49856">
        <ele>1131</ele>
        <time>2021-06-09T16:58:31+02:00</time>
      </trkpt>
      <trkpt lat="45.3781" lon="4.49855">
        <ele>1122</ele>
        <time>2021-06-09T16:58:36+02:00</time>
      </trkpt>
      <trkpt lat="45.37861" lon="4.49861">
        <ele>1115</ele>
        <time>2021-06-09T16:58:41+02:00</time>
      </trkpt>
      <trkpt lat="45.37968" lon="4.49861">
        <ele>1101</ele>
        <time>2021-06-09T16:58:46+02:00</time>
      </trkpt>
      <trkpt lat="45.38031" lon="4.4988">
        <ele>1095</ele>
        <time>2021-06-09T16:58:51+02:00</time>
      </trkpt>
      <trkpt lat="45.38087" lon="4.4992">
        <ele>1089</ele>
        <time>2021-06-09T16:58:56+02:00</time>
      </trkpt>
      <trkpt lat="45.3809" lon="4.50039">
        <ele>1085</ele>
        <time>2021-06-09T16:59:01+02:00</time>
      </trkpt>
      <trkpt lat="45.38064" lon="4.50175">
        <ele>1073</ele>
        <time>2021-06-09T16:59:06+02:00</time>
      </trkpt>
      <trkpt lat="45.38017" lon="4.5026">
        <ele>1058</ele>
        <time>2021-06-09T16:59:11+02:00</time>
      </trkpt>
      <trkpt lat="45.37969" lon="4.50311">
        <ele>1048</ele>
        <time>2021-06-09T16:59:16+02:00</time>
      </trkpt>
      <trkpt lat="45.37911" lon="4.50367">
        <ele>1047</ele>
        <time>2021-06-09T16:59:21+02:00</time>
      </trkpt>
      <trkpt lat="45.37906" lon="4.50386">
        <ele>1046</ele>
        <time>2021-06-09T16:59:26+02:00</time>
      </trkpt>
      <trkpt lat="45.37947" lon="4.50453">
        <ele>1035</ele>
        <time>2021-06-09T16:59:31+02:00</time>
      </trkpt>
      <trkpt lat="45.37993" lon="4.50508">
        <ele>1025</ele>
        <time>2021-06-09T16:59:36+02:00</time>
      </trkpt>
      <trkpt lat="45.38058" lon="4.50542">
        <ele>1012</ele>
        <time>2021-06-09T16:59:41+02:00</time>
      </trkpt>
      <trkpt lat="45.38092" lon="4.50584">
        <ele>1010</ele>
        <time>2021-06-09T16:59:46+02:00</time>
      </trkpt>
      <trkpt lat="45.38028" lon="4.50637">
        <ele>1008</ele>
        <time>2021-06-09T16:59:51+02:00</time>
      </trkpt>
      <trkpt lat="45.37927" lon="4.50704">
        <ele>1017</ele>
        <time>2021-06-09T16:59:56+02:00</time>
      </trkpt>
      <trkpt lat="45.37888" lon="4.50769">
        <ele>1014</ele>
        <time>2021-06-09T17:00:01+02:00</time>
      </trkpt>
      <trkpt lat="45.37846" lon="4.50814">
        <ele>1022</ele>
        <time>2021-06-09T17:00:06+02:00</time>
      </trkpt>
      <trkpt lat="45.37827" lon="4.50848">
        <ele>1024</ele>
        <time>2021-06-09T17:00:11+02:00</time>
      </trkpt>
      <trkpt lat="45.37817" lon="4.50941">
        <ele>1017</ele>
        <time>2021-06-09T17:00:16+02:00</time>
      </trkpt>
      <trkpt lat="45.37802" lon="4.5102">
        <ele>1017</ele>
        <time>2021-06-09T17:00:21+02:00</time>
      </trkpt>
      <trkpt lat="45.37798" lon="4.51087">
        <ele>1016</ele>
        <time>2021-06-09T17:00:26+02:00</time>
      </trkpt>
      <trkpt lat="45.37807" lon="4.51112">
        <ele>1015</ele>
        <time>2021-06-09T17:00:31+02:00</time>
      </trkpt>
      <trkpt lat="45.37862" lon="4.51104">
        <ele>997</ele>
        <time>2021-06-09T17:00:36+02:00</time>
      </trkpt>
      <trkpt lat="45.37955" lon="4.51097">
        <ele>974</ele>
        <time>2021-06-09T17:00:41+02:00</time>
      </trkpt>
      <trkpt lat="45.37975" lon="4.51124">
        <ele>972</ele>
        <time>2021-06-09T17:00:46+02:00</time>
      </trkpt>
      <trkpt lat="45.37914" lon="4.51259">
        <ele>985</ele>
        <time>2021-06-09T17:00:51+02:00</time>
      </trkpt>
      <trkpt lat="45.37863" lon="4.51381">
        <ele>988</ele>
        <time>2021-06-09T17:00:56+02:00</time>
      </trkpt>
      <trkpt lat="45.37825" lon="4.51492">
        <ele>985</ele>
        <time>2021-06-09T17:01:01+02:00</time>
      </trkpt>
      <trkpt lat="45.37792" lon="4.51569">
        <ele>980</ele>
        <time>2021-06-09T17:01:06+02:00</time>
      </trkpt>
      <trkpt lat="45.37734" lon="4.51616">
        <ele>986</ele>
        <time>2021-06-09T17:01:11+02:00</time>
      </trkpt>
      <trkpt lat="45.37706" lon="4.51635">
        <ele>992</ele>
        <time>2021-06-09T17:01:16+02:00</time>
      </trkpt>
      <trkpt lat="45.37696" lon="4.51747">
        <ele>989</ele>
        <time>2021-06-09T17:01:21+02:00</time>
      </trkpt>
      <trkpt lat="45.37658" lon="4.51824">
        <ele>992</ele>
        <time>2021-06-09T17:01:26+02:00</time>
      </trkpt>
      <trkpt lat="45.37618" lon="4.51889">
        <ele>986</ele>
        <time>2021-06-09T17:01:31+02:00</time>
      </trkpt>
      <trkpt lat="45.37524" lon="4.51885">
        <ele>1002</ele>
        <time>2021-06-09T17:01:36+02:00</time>
      </trkpt>
      <trkpt lat="45.37491" lon="4.519">
        <ele>1005</ele>
        <time>2021-06-09T17:01:41+02:00</time>
      </trkpt>
      <trkpt lat="45.37505" lon="4.5194">
        <ele>998</ele>
        <time>2021-06-09T17:01:46+02:00</time>
      </trkpt>
      <trkpt lat="45.37532" lon="4.52003">
        <ele>987</ele>
        <time>2021-06-09T17:01:51+02:00</time>
      </trkpt>
      <trkpt lat="45.37497" lon="4.5206">
        <ele>993</ele>
        <time>2021-06-09T17:01:56+02:00</time>
      </trkpt>
      <trkpt lat="45.37453" lon="4.52111">
        <ele>1006</ele>
        <time>2021-06-09T17:02:01+02:00</time>
      </trkpt>
      <trkpt lat="45.37456" lon="4.52132">
        <ele>1007</ele>
        <time>2021-06-09T17:02:06+02:00</time>
      </trkpt>
      <trkpt lat="45.37481" lon="4.52163">
        <ele>1004</ele>
        <time>2021-06-09T17:02:11+02:00</time>
      </trkpt>
      <trkpt lat="45.37525" lon="4.5219">
        <ele>1003</ele>
        <time>2021-06-09T17:02:16+02:00</time>
      </trkpt>
      <trkpt lat="45.37572" lon="4.5222">
        <ele>1007</ele>
        <time>2021-06-09T17:02:21+02:00</time>
      </trkpt>
      <trkpt lat="45.37616" lon="4.52213">
        <ele>1003</ele>
        <time>2021-06-09T17:02:26+02:00</time>
      </trkpt>
      <trkpt lat="45.37699" lon="4.52231">
        <ele>1008</ele>
        <time>2021-06-09T17:02:31+02:00</time>
      </trkpt>
      <trkpt lat="45.37758" lon="4.52228">
        <ele>1005</ele>
        <time>2021-06-09T17:02:36+02:00</time>
      </trkpt>
      <trkpt lat="45.37789" lon="4.52219">
        <ele>999</ele>
        <time>2021-06-09T17:02:41+02:00</time>
      </trkpt>
      <trkpt lat="45.37825" lon="4.52258">
        <ele>1008</ele>
        <time>2021-06-09T17:02:46+02:00</time>
      </trkpt>
      <trkpt lat="45.37851" lon="4.52392">
        <ele>1019</ele>
        <time>2021-06-09T17:02:51+02:00</time>
      </trkpt>
      <trkpt lat="45.37862" lon="4.52443">
        <ele>1025</ele>
        <time>2021-06-09T17:02:56+02:00</time>
      </trkpt>
      <trkpt lat="45.37914" lon="4.52435">
        <ele>1019</ele>
        <time>2021-06-09T17:03:01+02:00</time>
      </trkpt>
      <trkpt lat="45.37957" lon="4.52379">
        <ele>1022</ele>
        <time>2021-06-09T17:03:06+02:00</time>
      </trkpt>
      <trkpt lat="45.38003" lon="4.52268">
        <ele>1021</ele>
        <time>2021-06-09T17:03:11+02:00</time>
      </trkpt>
      <trkpt lat="45.38018" lon="4.52223">
        <ele>1018</ele>
        <time>2021-06-09T17:03:16+02:00</time>
      </trkpt>
      <trkpt lat="45.38077" lon="4.52203">
        <ele>1027</ele>
        <time>2021-06-09T17:03:21+02:00</time>
      </trkpt>
      <trkpt lat="45.38118" lon="4.52194">
        <ele>1033</ele>
        <time>2021-06-09T17:03:26+02:00</time>
      </trkpt>
      <trkpt lat="45.38206" lon="4.52148">
        <ele>1040</ele>
        <time>2021-06-09T17:03:31+02:00</time>
      </trkpt>
      <trkpt lat="45.38307" lon="4.5207">
        <ele>1047</ele>
        <time>2021-06-09T17:03:36+02:00</time>
      </trkpt>
      <trkpt lat="45.38335" lon="4.52042">
        <ele>1049</ele>
        <time>2021-06-09T17:03:41+02:00</time>
      </trkpt>
      <trkpt lat="45.38355" lon="4.52015">
        <ele>1051</ele>
        <time>2021-06-09T17:03:46+02:00</time>
      </trkpt>
      <trkpt lat="45.38366" lon="4.52026">
        <ele>1057</ele>
        <time>2021-06-09T17:03:51+02:00</time>
      </trkpt>
      <trkpt lat="45.38326" lon="4.52101">
        <ele>1061</ele>
        <time>2021-06-09T17:03:56+02:00</time>
      </trkpt>
      <trkpt lat="45.38244" lon="4.52287">
        <ele>1086</ele>
        <time>2021-06-09T17:04:01+02:00</time>
      </trkpt>
      <trkpt lat="45.3815" lon="4.52505">
        <ele>1111</ele>
        <time>2021-06-09T17:04:06+02:00</time>
      </trkpt>
      <trkpt lat="45.38084" lon="4.52576">
        <ele>1104</ele>
        <time>2021-06-09T17:04:11+02:00</time>
      </trkpt>
      <trkpt lat="45.38062" lon="4.5265">
        <ele>1107</ele>
        <time>2021-06-09T17:04:16+02:00</time>
      </trkpt>
      <trkpt lat="45.3805" lon="4.52824">
        <ele>1110</ele>
        <time>2021-06-09T17:04:21+02:00</time>
      </trkpt>
      <trkpt lat="45.38043" lon="4.52857">
        <ele>1110</ele>
        <time>2021-06-09T17:04:26+02:00</time>
      </trkpt>
      <trkpt lat="45.38062" lon="4.52859">
        <ele>1108</ele>
        <time>2021-06-09T17:04:31+02:00</time>
      </trkpt>
      <trkpt lat="45.38065" lon="4.52898">
        <ele>1104</ele>
        <time>2021-06-09T17:04:36+02:00</time>
      </trkpt>
      <trkpt lat="45.38052" lon="4.52997">
        <ele>1108</ele>
        <time>2021-06-09T17:04:41+02:00</time>
      </trkpt>
      <trkpt lat="45.38069" lon="4.53092">
        <ele>1100</ele>
        <time>2021-06-09T17:04:46+02:00</time>
      </trkpt>
      <trkpt lat="45.38088" lon="4.53182">
        <ele>1089</ele>
        <time>2021-06-09T17:04:51+02:00</time>
      </trkpt>
      <trkpt lat="45.38104" lon="4.53222">
        <ele>1086</ele>
        <time>2021-06-09T17:04:56+02:00</time>
      </trkpt>
      <trkpt lat="45.38107" lon="4.53185">
        <ele>1082</ele>
        <time>2021-06-09T17:05:01+02:00</time>
      </trkpt>
      <trkpt lat="45.3811" lon="4.53145">
        <ele>1080</ele>
        <time>2021-06-09T17:05:06+02:00</time>
      </trkpt>
      <trkpt lat="45.38147" lon="4.53086">
        <ele>1067</ele>
        <time>2021-06-09T17:05:11+02:00</time>
      </trkpt>
      <trkpt lat="45.38173" lon="4.53044">
        <ele>1061</ele>
        <time>2021-06-09T17:05:16+02:00</time>
      </trkpt>
      <trkpt lat="45.38188" lon="4.53045">
        <ele>1057</ele>
        <time>2021-06-09T17:05:21+02:00</time>
      </trkpt>
      <trkpt lat="45.38187" lon="4.53074">
        <ele>1054</ele>
        <time>2021-06-09T17:05:26+02:00</time>
      </trkpt>
      <trkpt lat="45.38228" lon="4.53118">
        <ele>1039</ele>
        <time>2021-06-09T17:05:31+02:00</time>
      </trkpt>
      <trkpt lat="45.3826" lon="4.53155">
        <ele>1027</ele>
        <time>2021-06-09T17:05:36+02:00</time>
      </trkpt>
      <trkpt lat="45.38272" lon="4.53185">
        <ele>1022</ele>
        <time>2021-06-09T17:05:41+02:00</time>
      </trkpt>
      <trkpt lat="45.38303" lon="4.53276">
        <ele>1014</ele>
        <time>2021-06-09T17:05:46+02:00</time>
      </trkpt>
      <trkpt lat="45.38358" lon="4.53342">
        <ele>995</ele>
        <time>2021-06-09T17:05:51+02:00</time>
      </trkpt>
      <trkpt lat="45.38387" lon="4.53383">
        <ele>984</ele>
        <time>2021-06-09T17:05:56+02:00</time>
      </trkpt>
      <trkpt lat="45.38396" lon="4.53484">
        <ele>980</ele>
        <time>2021-06-09T17:06:01+02:00</time>
      </trkpt>
      <trkpt lat="45.38404" lon="4.53579">
        <ele>966</ele>
        <time>2021-06-09T17:06:06+02:00</time>
      </trkpt>
      <trkpt lat="45.38402" lon="4.53636">
        <ele>952</ele>
        <time>2021-06-09T17:06:11+02:00</time>
      </trkpt>
      <trkpt lat="45.38391" lon="4.53669">
        <ele>947</ele>
        <time>2021-06-09T17:06:16+02:00</time>
      </trkpt>
      <trkpt lat="45.38349" lon="4.53728">
        <ele>952</ele>
        <time>2021-06-09T17:06:21+02:00</time>
      </trkpt>
      <trkpt lat="45.38303" lon="4.53813">
        <ele>944</ele>
        <time>2021-06-09T17:06:26+02:00</time>
      </trkpt>
      <trkpt lat="45.38248" lon="4.5385">
        <ele>955</ele>
        <time>2021-06-09T17:06:31+02:00</time>
      </trkpt>
      <trkpt lat="45.38198" lon="4.53882">
        <ele>962</ele>
        <time>2021-06-09T17:06:36+02:00</time>
      </trkpt>
      <trkpt lat="45.38177" lon="4.53976">
        <ele>953</ele>
        <time>2021-06-09T17:06:41+02:00</time>
      </trkpt>
      <trkpt lat="45.38178" lon="4.54">
        <ele>951</ele>
        <time>2021-06-09T17:06:46+02:00</time>
      </trkpt>
      <trkpt lat="45.38236" lon="4.54002">
        <ele>951</ele>
        <time>2021-06-09T17:06:51+02:00</time>
      </trkpt>
      <trkpt lat="45.38306" lon="4.5397">
        <ele>946</ele>
        <time>2021-06-09T17:06:56+02:00</time>
      </trkpt>
      <trkpt lat="45.38395" lon="4.5394">
        <ele>935</ele>
        <time>2021-06-09T17:07:01+02:00</time>
      </trkpt>
      <trkpt lat="45.38455" lon="4.53942">
        <ele>933</ele>
        <time>2021-06-09T17:07:06+02:00</time>
      </trkpt>
      <trkpt lat="45.38511" lon="4.53951">
        <ele>929</ele>
        <time>2021-06-09T17:07:11+02:00</time>
      </trkpt>
      <trkpt lat="45.38596" lon="4.54017">
        <ele>921</ele>
        <time>2021-06-09T17:07:16+02:00</time>
      </trkpt>
      <trkpt lat="45.38645" lon="4.54059">
        <ele>908</ele>
        <time>2021-06-09T17:07:21+02:00</time>
      </trkpt>
      <trkpt lat="45.38656" lon="4.54148">
        <ele>899</ele>
        <time>2021-06-09T17:07:26+02:00</time>
      </trkpt>
      <trkpt lat="45.38656" lon="4.54176">
        <ele>897</ele>
        <time>2021-06-09T17:07:31+02:00</time>
      </trkpt>
      <trkpt lat="45.38691" lon="4.54239">
        <ele>887</ele>
        <time>2021-06-09T17:07:36+02:00</time>
      </trkpt>
      <trkpt lat="45.38699" lon="4.5426">
        <ele>885</ele>
        <time>2021-06-09T17:07:41+02:00</time>
      </trkpt>
      <trkpt lat="45.38707" lon="4.54315">
        <ele>888</ele>
        <time>2021-06-09T17:07:46+02:00</time>
      </trkpt>
      <trkpt lat="45.38765" lon="4.54413">
        <ele>883</ele>
        <time>2021-06-09T17:07:51+02:00</time>
      </trkpt>
      <trkpt lat="45.38795" lon="4.54487">
        <ele>875</ele>
        <time>2021-06-09T17:07:56+02:00</time>
      </trkpt>
      <trkpt lat="45.38783" lon="4.54536">
        <ele>874</ele>
        <time>2021-06-09T17:08:01+02:00</time>
      </trkpt>
      <trkpt lat="45.38756" lon="4.54602">
        <ele>879</ele>
        <time>2021-06-09T17:08:06+02:00</time>
      </trkpt>
      <trkpt lat="45.38754" lon="4.54661">
        <ele>878</ele>
        <time>2021-06-09T17:08:11+02:00</time>
      </trkpt>
      <trkpt lat="45.38767" lon="4.54753">
        <ele>880</ele>
        <time>2021-06-09T17:08:16+02:00</time>
      </trkpt>
      <trkpt lat="45.38788" lon="4.54779">
        <ele>887</ele>
        <time>2021-06-09T17:08:21+02:00</time>
      </trkpt>
      <trkpt lat="45.38877" lon="4.54701">
        <ele>869</ele>
        <time>2021-06-09T17:08:26+02:00</time>
      </trkpt>
      <trkpt lat="45.38936" lon="4.54675">
        <ele>865</ele>
        <time>2021-06-09T17:08:31+02:00</time>
      </trkpt>
      <trkpt lat="45.38996" lon="4.54709">
        <ele>871</ele>
        <time>2021-06-09T17:08:36+02:00</time>
      </trkpt>
      <trkpt lat="45.39027" lon="4.5477">
        <ele>876</ele>
        <time>2021-06-09T17:08:41+02:00</time>
      </trkpt>
      <trkpt lat="45.39058" lon="4.54812">
        <ele>877</ele>
        <time>2021-06-09T17:08:46+02:00</time>
      </trkpt>
      <trkpt lat="45.39155" lon="4.54856">
        <ele>873</ele>
        <time>2021-06-09T17:08:51+02:00</time>
      </trkpt>
      <trkpt lat="45.39245" lon="4.54898">
        <ele>860</ele>
        <time>2021-06-09T17:08:56+02:00</time>
      </trkpt>
      <trkpt lat="45.39324" lon="4.54922">
        <ele>848</ele>
        <time>2021-06-09T17:09:01+02:00</time>
      </trkpt>
      <trkpt lat="45.39394" lon="4.5493">
        <ele>833</ele>
        <time>2021-06-09T17:09:06+02:00</time>
      </trkpt>
      <trkpt lat="45.39424" lon="4.54952">
        <ele>828</ele>
        <time>2021-06-09T17:09:11+02:00</time>
      </trkpt>
      <trkpt lat="45.39455" lon="4.55027">
        <ele>823</ele>
        <time>2021-06-09T17:09:16+02:00</time>
      </trkpt>
      <trkpt lat="45.39443" lon="4.5508">
        <ele>820</ele>
        <time>2021-06-09T17:09:21+02:00</time>
      </trkpt>
      <trkpt lat="45.39415" lon="4.55125">
        <ele>821</ele>
        <time>2021-06-09T17:09:26+02:00</time>
      </trkpt>
      <trkpt lat="45.39367" lon="4.55156">
        <ele>826</ele>
        <time>2021-06-09T17:09:31+02:00</time>
      </trkpt>
      <trkpt lat="45.39319" lon="4.55199">
        <ele>835</ele>
        <time>2021-06-09T17:09:36+02:00</time>
      </trkpt>
      <trkpt lat="45.39309" lon="4.55234">
        <ele>837</ele>
        <time>2021-06-09T17:09:41+02:00</time>
      </trkpt>
      <trkpt lat="45.39339" lon="4.55253">
        <ele>835</ele>
        <time>2021-06-09T17:09:46+02:00</time>
      </trkpt>
      <trkpt lat="45.39364" lon="4.55245">
        <ele>834</ele>
        <time>2021-06-09T17:09:51+02:00</time>
      </trkpt>
      <trkpt lat="45.39432" lon="4.55252">
        <ele>836</ele>
        <time>2021-06-09T17:09:56+02:00</time>
      </trkpt>
      <trkpt lat="45.39504" lon="4.55266">
        <ele>839</ele>
        <time>2021-06-09T17:10:01+02:00</time>
      </trkpt>
      <trkpt lat="45.39543" lon="4.55285">
        <ele>842</ele>
        <time>2021-06-09T17:10:06+02:00</time>
      </trkpt>
      <trkpt lat="45.39562" lon="4.55323">
        <ele>852</ele>
        <time>2021-06-09T17:10:11+02:00</time>
      </trkpt>
      <trkpt lat="45.39564" lon="4.55346">
        <ele>859</ele>
        <time>2021-06-09T17:10:16+02:00</time>
      </trkpt>
      <trkpt lat="45.39528" lon="4.55355">
        <ele>866</ele>
        <time>2021-06-09T17:10:21+02:00</time>
      </trkpt>
      <trkpt lat="45.39541" lon="4.55413">
        <ele>882</ele>
        <time>2021-06-09T17:10:26+02:00</time>
      </trkpt>
      <trkpt lat="45.39565" lon="4.55449">
        <ele>890</ele>
        <time>2021-06-09T17:10:31+02:00</time>
      </trkpt>
      <trkpt lat="45.39608" lon="4.55537">
        <ele>905</ele>
        <time>2021-06-09T17:10:36+02:00</time>
      </trkpt>
      <trkpt lat="45.39548" lon="4.55532">
        <ele>915</ele>
        <time>2021-06-09T17:10:41+02:00</time>
      </trkpt>
      <trkpt lat="45.39511" lon="4.5556">
        <ele>928</ele>
        <time>2021-06-09T17:10:46+02:00</time>
      </trkpt>
      <trkpt lat="45.39475" lon="4.55561">
        <ele>933</ele>
        <time>2021-06-09T17:10:51+02:00</time>
      </trkpt>
      <trkpt lat="45.39519" lon="4.5561">
        <ele>944</ele>
        <time>2021-06-09T17:10:56+02:00</time>
      </trkpt>
      <trkpt lat="45.39551" lon="4.55636">
        <ele>948</ele>
        <time>2021-06-09T17:11:01+02:00</time>
      </trkpt>
      <trkpt lat="45.3956" lon="4.55693">
        <ele>966</ele>
        <time>2021-06-09T17:11:06+02:00</time>
      </trkpt>
      <trkpt lat="45.39579" lon="4.55721">
        <ele>973</ele>
        <time>2021-06-09T17:11:11+02:00</time>
      </trkpt>
      <trkpt lat="45.39629" lon="4.55764">
        <ele>972</ele>
        <time>2021-06-09T17:11:16+02:00</time>
      </trkpt>
      <trkpt lat="45.3965" lon="4.55849">
        <ele>979</ele>
        <time>2021-06-09T17:11:21+02:00</time>
      </trkpt>
      <trkpt lat="45.39654" lon="4.55947">
        <ele>984</ele>
        <time>2021-06-09T17:11:26+02:00</time>
      </trkpt>
      <trkpt lat="45.39622" lon="4.55957">
        <ele>1003</ele>
        <time>2021-06-09T17:11:31+02:00</time>
      </trkpt>
      <trkpt lat="45.39562" lon="4.55978">
        <ele>1037</ele>
        <time>2021-06-09T17:11:36+02:00</time>
      </trkpt>
      <trkpt lat="45.39498" lon="4.56029">
        <ele>1072</ele>
        <time>2021-06-09T17:11:41+02:00</time>
      </trkpt>
      <trkpt lat="45.39466" lon="4.56108">
        <ele>1098</ele>
        <time>2021-06-09T17:11:46+02:00</time>
      </trkpt>
      <trkpt lat="45.39458" lon="4.56161">
        <ele>1113</ele>
        <time>2021-06-09T17:11:51+02:00</time>
      </trkpt>
      <trkpt lat="45.39427" lon="4.56214">
        <ele>1137</ele>
        <time>2021-06-09T17:11:56+02:00</time>
      </trkpt>
      <trkpt lat="45.39424" lon="4.56288">
        <ele>1156</ele>
        <time>2021-06-09T17:12:01+02:00</time>
      </trkpt>
      <trkpt lat="45.39399" lon="4.56337">
        <ele>1170</ele>
        <time>2021-06-09T17:12:06+02:00</time>
      </trkpt>
      <trkpt lat="45.39399" lon="4.56368">
        <ele>1173</ele>
        <time>2021-06-09T17:12:11+02:00</time>
      </trkpt>
      <trkpt lat="45.39363" lon="4.56415">
        <ele>1188</ele>
        <time>2021-06-09T17:12:16+02:00</time>
      </trkpt>
      <trkpt lat="45.39334" lon="4.56494">
        <ele>1210</ele>
        <time>2021-06-09T17:12:21+02:00</time>
      </trkpt>
      <trkpt lat="45.39292" lon="4.56582">
        <ele>1227</ele>
        <time>2021-06-09T17:12:26+02:00</time>
      </trkpt>
      <trkpt lat="45.39231" lon="4.56614">
        <ele>1243</ele>
        <time>2021-06-09T17:12:31+02:00</time>
      </trkpt>
      <trkpt lat="45.39168" lon="4.56637">
        <ele>1259</ele>
        <time>2021-06-09T17:12:36+02:00</time>
      </trkpt>
      <trkpt lat="45.39131" lon="4.56694">
        <ele>1266</ele>
        <time>2021-06-09T17:12:41+02:00</time>
      </trkpt>
      <trkpt lat="45.39087" lon="4.56716">
        <ele>1273</ele>
        <time>2021-06-09T17:12:46+02:00</time>
      </trkpt>
      <trkpt lat="45.39057" lon="4.56762">
        <ele>1279</ele>
        <time>2021-06-09T17:12:51+02:00</time>
      </trkpt>
      <trkpt lat="45.39033" lon="4.56797">
        <ele>1283</ele>
        <time>2021-06-09T17:12:56+02:00</time>
      </trkpt>
      <trkpt lat="45.39017" lon="4.56889">
        <ele>1292</ele>
        <time>2021-06-09T17:13:01+02:00</time>
      </trkpt>
      <trkpt lat="45.39002" lon="4.56972">
        <ele>1300</ele>
        <time>2021-06-09T17:13:06+02:00</time>
      </trkpt>
      <trkpt lat="45.39006" lon="4.57061">
        <ele>1305</ele>
        <time>2021-06-09T17:13:11+02:00</time>
      </trkpt>
      <trkpt lat="45.39003" lon="4.57123">
        <ele>1308</ele>
        <time>2021-06-09T17:13:16+02:00</time>
      </trkpt>
      <trkpt lat="45.38995" lon="4.57187">
        <ele>1309</ele>
        <time>2021-06-09T17:13:21+02:00</time>
      </trkpt>
      <trkpt lat="45.38999" lon="4.57253">
        <ele>1305</ele>
        <time>2021-06-09T17:13:26+02:00</time>
      </trkpt>
      <trkpt lat="45.38992" lon="4.5731">
        <ele>1303</ele>
        <time>2021-06-09T17:13:31+02:00</time>
      </trkpt>
      <trkpt lat="45.38995" lon="4.57336">
        <ele>1301</ele>
        <time>2021-06-09T17:13:36+02:00</time>
      </trkpt>
      <trkpt lat="45.39032" lon="4.57363">
        <ele>1304</ele>
        <time>2021-06-09T17:13:41+02:00</time>
      </trkpt>
      <trkpt lat="45.39032" lon="4.57406">
        <ele>1309</ele>
        <time>2021-06-09T17:13:46+02:00</time>
      </trkpt>
      <trkpt lat="45.38985" lon="4.57415">
        <ele>1309</ele>
        <time>2021-06-09T17:13:51+02:00</time>
      </trkpt>
      <trkpt lat="45.38955" lon="4.57407">
        <ele>1309</ele>
        <time>2021-06-09T17:13:56+02:00</time>
      </trkpt>
      <trkpt lat="45.38916" lon="4.57434">
        <ele>1312</ele>
        <time>2021-06-09T17:14:01+02:00</time>
      </trkpt>
      <trkpt lat="45.3884" lon="4.5746">
        <ele>1323</ele>
        <time>2021-06-09T17:14:06+02:00</time>
      </trkpt>
      <trkpt lat="45.38774" lon="4.57466">
        <ele>1332</ele>
        <time>2021-06-09T17:14:11+02:00</time>
      </trkpt>
      <trkpt lat="45.3866" lon="4.57528">
        <ele>1353</ele>
        <time>2021-06-09T17:14:16+02:00</time>
      </trkpt>
      <trkpt lat="45.38633" lon="4.57562">
        <ele>1359</ele>
        <time>2021-06-09T17:14:21+02:00</time>
      </trkpt>
      <trkpt lat="45.38557" lon="4.57584">
        <ele>1370</ele>
        <time>2021-06-09T17:14:26+02:00</time>
      </trkpt>
      <trkpt lat="45.3852" lon="4.57607">
        <ele>1376</ele>
        <time>2021-06-09T17:14:31+02:00</time>
      </trkpt>
      <trkpt lat="45.38437" lon="4.57612">
        <ele>1389</ele>
        <time>2021-06-09T17:14:36+02:00</time>
      </trkpt>
      <trkpt lat="45.38302" lon="4.57628">
        <ele>1398</ele>
        <time>2021-06-09T17:14:41+02:00</time>
      </trkpt>
      <trkpt lat="45.38284" lon="4.57635">
        <ele>1398</ele>
        <time>2021-06-09T17:14:46+02:00</time>
      </trkpt>
      <trkpt lat="45.38265" lon="4.575">
        <ele>1403</ele>
        <time>2021-06-09T17:14:51+02:00</time>
      </trkpt>
      <trkpt lat="45.38259" lon="4.5738">
        <ele>1414</ele>
        <time>2021-06-09T17:14:56+02:00</time>
      </trkpt>
      <trkpt lat="45.38251" lon="4.57353">
        <ele>1418</ele>
        <time>2021-06-09T17:15:01+02:00</time>
      </trkpt>
      <trkpt lat="45.38252" lon="4.57283">
        <ele>1421</ele>
        <time>2021-06-09T17:15:06+02:00</time>
      </trkpt>
      <trkpt lat="45.38238" lon="4.57228">
        <ele>1420</ele>
        <time>2021-06-09T17:15:11+02:00</time>
      </trkpt>
      <trkpt lat="45.38227" lon="4.57159">
        <ele>1415</ele>
        <time>2021-06-09T17:15:16+02:00</time>
      </trkpt>
      <trkpt lat="45.38223" lon="4.57138">
        <ele>1413</ele>
        <time>2021-06-09T17:15:21+02:00</time>
      </trkpt>
      <trkpt lat="45.38146" lon="4.57">
        <ele>1399</ele>
        <time>2021-06-09T17:15:26+02:00</time>
      </trkpt>
      <trkpt lat="45.38088" lon="4.56898">
        <ele>1390</ele>
        <time>2021-06-09T17:15:31+02:00</time>
      </trkpt>
      <trkpt lat="45.38055" lon="4.56834">
        <ele>1384</ele>
        <time>2021-06-09T17:15:36+02:00</time>
      </trkpt>
      <trkpt lat="45.3804" lon="4.56795">
        <ele>1381</ele>
        <time>2021-06-09T17:15:41+02:00</time>
      </trkpt>
      <trkpt lat="45.38013" lon="4.5676">
        <ele>1379</ele>
        <time>2021-06-09T17:15:46+02:00</time>
      </trkpt>
      <trkpt lat="45.37932" lon="4.56744">
        <ele>1375</ele>
        <time>2021-06-09T17:15:51+02:00</time>
      </trkpt>
      <trkpt lat="45.37843" lon="4.56681">
        <ele>1368</ele>
        <time>2021-06-09T17:15:56+02:00</time>
      </trkpt>
      <trkpt lat="45.3776" lon="4.56577">
        <ele>1358</ele>
        <time>2021-06-09T17:16:01+02:00</time>
      </trkpt>
      <trkpt lat="45.37703" lon="4.56507">
        <ele>1349</ele>
        <time>2021-06-09T17:16:06+02:00</time>
      </trkpt>
      <trkpt lat="45.37633" lon="4.56414">
        <ele>1337</ele>
        <time>2021-06-09T17:16:11+02:00</time>
      </trkpt>
      <trkpt lat="45.37525" lon="4.56376">
        <ele>1329</ele>
        <time>2021-06-09T17:16:16+02:00</time>
      </trkpt>
      <trkpt lat="45.37437" lon="4.56304">
        <ele>1314</ele>
        <time>2021-06-09T17:16:21+02:00</time>
      </trkpt>
      <trkpt lat="45.37398" lon="4.56275">
        <ele>1308</ele>
        <time>2021-06-09T17:16:26+02:00</time>
      </trkpt>
      <trkpt lat="45.37331" lon="4.56193">
        <ele>1300</ele>
        <time>2021-06-09T17:16:31+02:00</time>
      </trkpt>
      <trkpt lat="45.37313" lon="4.56185">
        <ele>1300</ele>
        <time>2021-06-09T17:16:36+02:00</time>
      </trkpt>
      <trkpt lat="45.37285" lon="4.56143">
        <ele>1300</ele>
        <time>2021-06-09T17:16:41+02:00</time>
      </trkpt>
      <trkpt lat="45.37238" lon="4.56064">
        <ele>1305</ele>
        <time>2021-06-09T17:16:46+02:00</time>
      </trkpt>
      <trkpt lat="45.37223" lon="4.56002">
        <ele>1306</ele>
        <time>2021-06-09T17:16:51+02:00</time>
      </trkpt>
      <trkpt lat="45.37214" lon="4.55935">
        <ele>1305</ele>
        <time>2021-06-09T17:16:56+02:00</time>
      </trkpt>
      <trkpt lat="45.37195" lon="4.55818">
        <ele>1297</ele>
        <time>2021-06-09T17:17:01+02:00</time>
      </trkpt>
      <trkpt lat="45.37128" lon="4.55688">
        <ele>1299</ele>
        <time>2021-06-09T17:17:06+02:00</time>
      </trkpt>
      <trkpt lat="45.37112" lon="4.55553">
        <ele>1301</ele>
        <time>2021-06-09T17:17:11+02:00</time>
      </trkpt>
      <trkpt lat="45.37147" lon="4.55415">
        <ele>1296</ele>
        <time>2021-06-09T17:17:16+02:00</time>
      </trkpt>
      <trkpt lat="45.37156" lon="4.5539">
        <ele>1294</ele>
        <time>2021-06-09T17:17:21+02:00</time>
      </trkpt>
      <trkpt lat="45.37153" lon="4.55259">
        <ele>1293</ele>
        <time>2021-06-09T17:17:26+02:00</time>
      </trkpt>
      <trkpt lat="45.37187" lon="4.55075">
        <ele>1289</ele>
        <time>2021-06-09T17:17:31+02:00</time>
      </trkpt>
      <trkpt lat="45.37224" lon="4.54903">
        <ele>1284</ele>
        <time>2021-06-09T17:17:36+02:00</time>
      </trkpt>
      <trkpt lat="45.37184" lon="4.54789">
        <ele>1282</ele>
        <time>2021-06-09T17:17:41+02:00</time>
      </trkpt>
      <trkpt lat="45.37095" lon="4.54612">
        <ele>1259</ele>
        <time>2021-06-09T17:17:46+02:00</time>
      </trkpt>
      <trkpt lat="45.37041" lon="4.54529">
        <ele>1247</ele>
        <time>2021-06-09T17:17:51+02:00</time>
      </trkpt>
      <trkpt lat="45.37017" lon="4.54431">
        <ele>1232</ele>
        <time>2021-06-09T17:17:56+02:00</time>
      </trkpt>
      <trkpt lat="45.3701" lon="4.54318">
        <ele>1223</ele>
        <time>2021-06-09T17:18:01+02:00</time>
      </trkpt>
      <trkpt lat="45.36997" lon="4.54194">
        <ele>1224</ele>
        <time>2021-06-09T17:18:06+02:00</time>
      </trkpt>
      <trkpt lat="45.36987" lon="4.54062">
        <ele>1227</ele>
        <time>2021-06-09T17:18:11+02:00</time>
      </trkpt>
      <trkpt lat="45.37006" lon="4.53992">
        <ele>1230</ele>
        <time>2021-06-09T17:18:16+02:00</time>
      </trkpt>
      <trkpt lat="45.36998" lon="4.53875">
        <ele>1240</ele>
        <time>2021-06-09T17:18:21+02:00</time>
      </trkpt>
      <trkpt lat="45.36992" lon="4.53772">
        <ele>1244</ele>
        <time>2021-06-09T17:18:26+02:00</time>
      </trkpt>
      <trkpt lat="45.37005" lon="4.5368">
        <ele>1245</ele>
        <time>2021-06-09T17:18:31+02:00</time>
      </trkpt>
      <trkpt lat="45.37018" lon="4.53588">
        <ele>1247</ele>
        <time>2021-06-09T17:18:36+02:00</time>
      </trkpt>
      <trkpt lat="45.37021" lon="4.535">
        <ele>1248</ele>
        <time>2021-06-09T17:18:41+02:00</time>
      </trkpt>
      <trkpt lat="45.37" lon="4.53449">
        <ele>1250</ele>
        <time>2021-06-09T17:18:46+02:00</time>
      </trkpt>
      <trkpt lat="45.36961" lon="4.53332">
        <ele>1247</ele>
        <time>2021-06-09T17:18:51+02:00</time>
      </trkpt>
      <trkpt lat="45.36933" lon="4.53262">
        <ele>1239</ele>
        <time>2021-06-09T17:18:56+02:00</time>
      </trkpt>
      <trkpt lat="45.36921" lon="4.53171">
        <ele>1236</ele>
        <time>2021-06-09T17:19:01+02:00</time>
      </trkpt>
      <trkpt lat="45.36904" lon="4.53075">
        <ele>1226</ele>
        <time>2021-06-09T17:19:06+02:00</time>
      </trkpt>
      <trkpt lat="45.36907" lon="4.53046">
        <ele>1223</ele>
        <time>2021-06-09T17:19:11+02:00</time>
      </trkpt>
      <trkpt lat="45.36881" lon="4.52989">
        <ele>1215</ele>
        <time>2021-06-09T17:19:16+02:00</time>
      </trkpt>
      <trkpt lat="45.36854" lon="4.52867">
        <ele>1205</ele>
        <time>2021-06-09T17:19:21+02:00</time>
      </trkpt>
      <trkpt lat="45.36854" lon="4.5284">
        <ele>1204</ele>
        <time>2021-06-09T17:19:26+02:00</time>
      </trkpt>
      <trkpt lat="45.36834" lon="4.52821">
        <ele>1204</ele>
        <time>2021-06-09T17:19:31+02:00</time>
      </trkpt>
      <trkpt lat="45.36794" lon="4.52819">
        <ele>1205</ele>
        <time>2021-06-09T17:19:36+02:00</time>
      </trkpt>
      <trkpt lat="45.36801" lon="4.52796">
        <ele>1205</ele>
        <time>2021-06-09T17:19:41+02:00</time>
      </trkpt>
      <trkpt lat="45.36775" lon="4.52792">
        <ele>1207</ele>
        <time>2021-06-09T17:19:46+02:00</time>
      </trkpt>
      <trkpt lat="45.368" lon="4.52722">
        <ele>1207</ele>
        <time>2021-06-09T17:19:51+02:00</time>
      </trkpt>
      <trkpt lat="45.3682" lon="4.52651">
        <ele>1205</ele>
        <time>2021-06-09T17:19:56+02:00</time>
      </trkpt>
      <trkpt lat="45.36813" lon="4.52635">
        <ele>1206</ele>
        <time>2021-06-09T17:20:01+02:00</time>
      </trkpt>
      <trkpt lat="45.36808" lon="4.52611">
        <ele>1207</ele>
        <time>2021-06-09T17:20:06+02:00</time>
      </trkpt>
      <trkpt lat="45.36816" lon="4.52582">
        <ele>1206</ele>
        <time>2021-06-09T17:20:11+02:00</time>
      </trkpt>
      <trkpt lat="45.36809" lon="4.52363">
        <ele>1205</ele>
        <time>2021-06-09T17:20:16+02:00</time>
      </trkpt>
      <trkpt lat="45.36813" lon="4.52312">
        <ele>1204</ele>
        <time>2021-06-09T17:20:21+02:00</time>
      </trkpt>
      <trkpt lat="45.36808" lon="4.52187">
        <ele>1199</ele>
        <time>2021-06-09T17:20:26+02:00</time>
      </trkpt>
      <trkpt lat="45.36794" lon="4.5214">
        <ele>1199</ele>
        <time>2021-06-09T17:20:31+02:00</time>
      </trkpt>
      <trkpt lat="45.36785" lon="4.52077">
        <ele>1197</ele>
        <time>2021-06-09T17:20:36+02:00</time>
      </trkpt>
      <trkpt lat="45.36782" lon="4.52047">
        <ele>1196</ele>
        <time>2021-06-09T17:20:41+02:00</time>
      </trkpt>
      <trkpt lat="45.36769" lon="4.51993">
        <ele>1194</ele>
        <time>2021-06-09T17:20:46+02:00</time>
      </trkpt>
      <trkpt lat="45.36771" lon="4.51951">
        <ele>1190</ele>
        <time>2021-06-09T17:20:51+02:00</time>
      </trkpt>
      <trkpt lat="45.36776" lon="4.51911">
        <ele>1187</ele>
        <time>2021-06-09T17:20:56+02:00</time>
      </trkpt>
      <trkpt lat="45.36777" lon="4.5186">
        <ele>1185</ele>
        <time>2021-06-09T17:21:01+02:00</time>
      </trkpt>
      <trkpt lat="45.36807" lon="4.51747">
        <ele>1179</ele>
        <time>2021-06-09T17:21:06+02:00</time>
      </trkpt>
      <trkpt lat="45.3683" lon="4.5168">
        <ele>1176</ele>
        <time>2021-06-09T17:21:11+02:00</time>
      </trkpt>
      <trkpt lat="45.3685" lon="4.51643">
        <ele>1174</ele>
        <time>2021-06-09T17:21:16+02:00</time>
      </trkpt>
      <trkpt lat="45.36877" lon="4.51602">
        <ele>1174</ele>
        <time>2021-06-09T17:21:21+02:00</time>
      </trkpt>
      <trkpt lat="45.3691" lon="4.5153">
        <ele>1176</ele>
        <time>2021-06-09T17:21:26+02:00</time>
      </trkpt>
      <trkpt lat="45.36937" lon="4.51432">
        <ele>1175</ele>
        <time>2021-06-09T17:21:31+02:00</time>
      </trkpt>
      <trkpt lat="45.36975" lon="4.51363">
        <ele>1171</ele>
        <time>2021-06-09T17:21:36+02:00</time>
      </trkpt>
      <trkpt lat="45.37016" lon="4.51323">
        <ele>1168</ele>
        <time>2021-06-09T17:21:41+02:00</time>
      </trkpt>
      <trkpt lat="45.37055" lon="4.51286">
        <ele>1165</ele>
        <time>2021-06-09T17:21:46+02:00</time>
      </trkpt>
      <trkpt lat="45.3708" lon="4.51278">
        <ele>1165</ele>
        <time>2021-06-09T17:21:51+02:00</time>
      </trkpt>
      <trkpt lat="45.37123" lon="4.51222">
        <ele>1168</ele>
        <time>2021-06-09T17:21:56+02:00</time>
      </trkpt>
      <trkpt lat="45.37168" lon="4.51143">
        <ele>1172</ele>
        <time>2021-06-09T17:22:01+02:00</time>
      </trkpt>
      <trkpt lat="45.3719" lon="4.51043">
        <ele>1176</ele>
        <time>2021-06-09T17:22:06+02:00</time>
      </trkpt>
      <trkpt lat="45.37201" lon="4.50925">
        <ele>1182</ele>
        <time>2021-06-09T17:22:11+02:00</time>
      </trkpt>
      <trkpt lat="45.37195" lon="4.50768">
        <ele>1185</ele>
        <time>2021-06-09T17:22:16+02:00</time>
      </trkpt>
      <trkpt lat="45.37223" lon="4.50635">
        <ele>1180</ele>
        <time>2021-06-09T17:22:21+02:00</time>
      </trkpt>
      <trkpt lat="45.37269" lon="4.50529">
        <ele>1172</ele>
        <time>2021-06-09T17:22:26+02:00</time>
      </trkpt>
      <trkpt lat="45.3734" lon="4.50413">
        <ele>1167</ele>
        <time>2021-06-09T17:22:31+02:00</time>
      </trkpt>
      <trkpt lat="45.37373" lon="4.50354">
        <ele>1166</ele>
        <time>2021-06-09T17:22:36+02:00</time>
      </trkpt>
      <trkpt lat="45.37375" lon="4.50314">
        <ele>1164</ele>
        <time>2021-06-09T17:22:41+02:00</time>
      </trkpt>
      <trkpt lat="45.37407" lon="4.5031">
        <ele>1167</ele>
        <time>2021-06-09T17:22:46+02:00</time>
      </trkpt>
      <trkpt lat="45.37469" lon="4.50207">
        <ele>1162</ele>
        <time>2021-06-09T17:22:51+02:00</time>
      </trkpt>
      <trkpt lat="45.37569" lon="4.50037">
        <ele>1157</ele>
        <time>2021-06-09T17:22:56+02:00</time>
      </trkpt>
      <trkpt lat="45.37636" lon="4.49924">
        <ele>1153</ele>
        <time>2021-06-09T17:23:01+02:00</time>
      </trkpt>
      <trkpt lat="45.37652" lon="4.49824">
        <ele>1147</ele>
        <time>2021-06-09T17:23:06+02:00</time>
      </trkpt>
      <trkpt lat="45.37679" lon="4.49704">
        <ele>1140</ele>
        <time>2021-06-09T17:23:11+02:00</time>
      </trkpt>
      <trkpt lat="45.37719" lon="4.49595">
        <ele>1135</ele>
        <time>2021-06-09T17:23:16+02:00</time>
      </trkpt>
      <trkpt lat="45.37857" lon="4.49401">
        <ele>1125</ele>
        <time>2021-06-09T17:23:21+02:00</time>
      </trkpt>
      <trkpt lat="45.37932" lon="4.49274">
        <ele>1114</ele>
        <time>2021-06-09T17:23:26+02:00</time>
      </trkpt>
      <trkpt lat="45.38022" lon="4.49193">
        <ele>1105</ele>
        <time>2021-06-09T17:23:31+02:00</time>
      </trkpt>
      <trkpt lat="45.38118" lon="4.49126">
        <ele>1100</ele>
        <time>2021-06-09T17:23:36+02:00</time>
      </trkpt>
      <trkpt lat="45.38138" lon="4.49141">
        <ele>1099</ele>
        <time>2021-06-09T17:23:41+02:00</time>
      </trkpt>
      <trkpt lat="45.38245" lon="4.49054">
        <ele>1091</ele>
        <time>2021-06-09T17:23:46+02:00</time>
      </trkpt>
      <trkpt lat="45.38356" lon="4.48957">
        <ele>1088</ele>
        <time>2021-06-09T17:23:51+02:00</time>
      </trkpt>
      <trkpt lat="45.38438" lon="4.48851">
        <ele>1087</ele>
        <time>2021-06-09T17:23:56+02:00</time>
      </trkpt>
      <trkpt lat="45.38492" lon="4.48754">
        <ele>1087</ele>
        <time>2021-06-09T17:24:01+02:00</time>
      </trkpt>
      <trkpt lat="45.38576" lon="4.48621">
        <ele>1093</ele>
        <time>2021-06-09T17:24:06+02:00</time>
      </trkpt>
      <trkpt lat="45.38688" lon="4.48496">
        <ele>1069</ele>
        <time>2021-06-09T17:24:11+02:00</time>
      </trkpt>
      <trkpt lat="45.38826" lon="4.48379">
        <ele>1044</ele>
        <time>2021-06-09T17:24:16+02:00</time>
      </trkpt>
      <trkpt lat="45.38847" lon="4.48389">
        <ele>1043</ele>
        <time>2021-06-09T17:24:21+02:00</time>
      </trkpt>
      <trkpt lat="45.38931" lon="4.48294">
        <ele>1037</ele>
        <time>2021-06-09T17:24:26+02:00</time>
      </trkpt>
      <trkpt lat="45.39047" lon="4.48134">
        <ele>1041</ele>
        <time>2021-06-09T17:24:31+02:00</time>
      </trkpt>
      <trkpt lat="45.39088" lon="4.4809">
        <ele>1045</ele>
        <time>2021-06-09T17:24:36+02:00</time>
      </trkpt>
      <trkpt lat="45.39088" lon="4.4809">
        <ele>1045</ele>
        <time>2021-06-09T17:24:41+02:00</time>
      </trkpt>
    </trkseg>
  </trk>
  <trk>
    <name><![CDATA[Echappée des deux vallées]]></name>
    <extensions>
      <line xmlns="http://www.topografix.com/GPX/gpx_style/0/2">
        <color>00FF00</color>
        <width>4</width>
      </line>
    </extensions>
    <trkseg>
      <trkpt lat="45.3908" lon="4.481">
        <ele>1044</ele>
        <time>2021-06-09T16:55:57+02:00</time>
      </trkpt>
      <trkpt lat="45.39128" lon="4.48034">
        <ele>1047</ele>
        <time>2021-06-09T16:56:02+02:00</time>
      </trkpt>
      <trkpt lat="45.39165" lon="4.47969">
        <ele>1053</ele>
        <time>2021-06-09T16:56:07+02:00</time>
      </trkpt>
      <trkpt lat="45.39171" lon="4.47936">
        <ele>1055</ele>
        <time>2021-06-09T16:56:12+02:00</time>
      </trkpt>
      <trkpt lat="45.39178" lon="4.47775">
        <ele>1068</ele>
        <time>2021-06-09T16:56:17+02:00</time>
      </trkpt>
      <trkpt lat="45.39207" lon="4.4769">
        <ele>1073</ele>
        <time>2021-06-09T16:56:22+02:00</time>
      </trkpt>
      <trkpt lat="45.39221" lon="4.47669">
        <ele>1075</ele>
        <time>2021-06-09T16:56:27+02:00</time>
      </trkpt>
      <trkpt lat="45.39244" lon="4.47636">
        <ele>1078</ele>
        <time>2021-06-09T16:56:32+02:00</time>
      </trkpt>
      <trkpt lat="45.39302" lon="4.47596">
        <ele>1081</ele>
        <time>2021-06-09T16:56:37+02:00</time>
      </trkpt>
      <trkpt lat="45.39354" lon="4.47578">
        <ele>1081</ele>
        <time>2021-06-09T16:56:42+02:00</time>
      </trkpt>
      <trkpt lat="45.39498" lon="4.47552">
        <ele>1070</ele>
        <time>2021-06-09T16:56:47+02:00</time>
      </trkpt>
      <trkpt lat="45.39568" lon="4.47547">
        <ele>1074</ele>
        <time>2021-06-09T16:56:52+02:00</time>
      </trkpt>
      <trkpt lat="45.39699" lon="4.47535">
        <ele>1071</ele>
        <time>2021-06-09T16:56:57+02:00</time>
      </trkpt>
      <trkpt lat="45.39792" lon="4.4756">
        <ele>1060</ele>
        <time>2021-06-09T16:57:02+02:00</time>
      </trkpt>
      <trkpt lat="45.39929" lon="4.4764">
        <ele>1053</ele>
        <time>2021-06-09T16:57:07+02:00</time>
      </trkpt>
      <trkpt lat="45.40113" lon="4.47743">
        <ele>1058</ele>
        <time>2021-06-09T16:57:12+02:00</time>
      </trkpt>
      <trkpt lat="45.40289" lon="4.47749">
        <ele>1069</ele>
        <time>2021-06-09T16:57:17+02:00</time>
      </trkpt>
      <trkpt lat="45.40432" lon="4.4773">
        <ele>1075</ele>
        <time>2021-06-09T16:57:22+02:00</time>
      </trkpt>
      <trkpt lat="45.40503" lon="4.47738">
        <ele>1076</ele>
        <time>2021-06-09T16:57:27+02:00</time>
      </trkpt>
      <trkpt lat="45.40716" lon="4.47833">
        <ele>1084</ele>
        <time>2021-06-09T16:57:32+02:00</time>
      </trkpt>
      <trkpt lat="45.4085" lon="4.47957">
        <ele>1088</ele>
        <time>2021-06-09T16:57:37+02:00</time>
      </trkpt>
      <trkpt lat="45.4094" lon="4.47959">
        <ele>1080</ele>
        <time>2021-06-09T16:57:42+02:00</time>
      </trkpt>
      <trkpt lat="45.41092" lon="4.47891">
        <ele>1068</ele>
        <time>2021-06-09T16:57:47+02:00</time>
      </trkpt>
      <trkpt lat="45.41235" lon="4.48004">
        <ele>1048</ele>
        <time>2021-06-09T16:57:52+02:00</time>
      </trkpt>
      <trkpt lat="45.41333" lon="4.4808">
        <ele>1049</ele>
        <time>2021-06-09T16:57:57+02:00</time>
      </trkpt>
      <trkpt lat="45.41375" lon="4.48105">
        <ele>1051</ele>
        <time>2021-06-09T16:58:02+02:00</time>
      </trkpt>
      <trkpt lat="45.41415" lon="4.48112">
        <ele>1055</ele>
        <time>2021-06-09T16:58:07+02:00</time>
      </trkpt>
      <trkpt lat="45.41455" lon="4.48313">
        <ele>1070</ele>
        <time>2021-06-09T16:58:12+02:00</time>
      </trkpt>
      <trkpt lat="45.41475" lon="4.48462">
        <ele>1074</ele>
        <time>2021-06-09T16:58:17+02:00</time>
      </trkpt>
      <trkpt lat="45.41493" lon="4.48599">
        <ele>1079</ele>
        <time>2021-06-09T16:58:22+02:00</time>
      </trkpt>
      <trkpt lat="45.41511" lon="4.48633">
        <ele>1079</ele>
        <time>2021-06-09T16:58:27+02:00</time>
      </trkpt>
      <trkpt lat="45.41537" lon="4.4865">
        <ele>1079</ele>
        <time>2021-06-09T16:58:32+02:00</time>
      </trkpt>
      <trkpt lat="45.41555" lon="4.48743">
        <ele>1071</ele>
        <time>2021-06-09T16:58:37+02:00</time>
      </trkpt>
      <trkpt lat="45.41704" lon="4.48925">
        <ele>1059</ele>
        <time>2021-06-09T16:58:42+02:00</time>
      </trkpt>
      <trkpt lat="45.41767" lon="4.49054">
        <ele>1044</ele>
        <time>2021-06-09T16:58:47+02:00</time>
      </trkpt>
      <trkpt lat="45.41775" lon="4.4917">
        <ele>1022</ele>
        <time>2021-06-09T16:58:52+02:00</time>
      </trkpt>
      <trkpt lat="45.41796" lon="4.49322">
        <ele>999</ele>
        <time>2021-06-09T16:58:57+02:00</time>
      </trkpt>
      <trkpt lat="45.4185" lon="4.49459">
        <ele>973</ele>
        <time>2021-06-09T16:59:02+02:00</time>
      </trkpt>
      <trkpt lat="45.41824" lon="4.49571">
        <ele>944</ele>
        <time>2021-06-09T16:59:07+02:00</time>
      </trkpt>
      <trkpt lat="45.41913" lon="4.49637">
        <ele>932</ele>
        <time>2021-06-09T16:59:12+02:00</time>
      </trkpt>
      <trkpt lat="45.4194" lon="4.49693">
        <ele>920</ele>
        <time>2021-06-09T16:59:17+02:00</time>
      </trkpt>
      <trkpt lat="45.41934" lon="4.49597">
        <ele>937</ele>
        <time>2021-06-09T16:59:22+02:00</time>
      </trkpt>
      <trkpt lat="45.41925" lon="4.49434">
        <ele>965</ele>
        <time>2021-06-09T16:59:27+02:00</time>
      </trkpt>
      <trkpt lat="45.41955" lon="4.49206">
        <ele>980</ele>
        <time>2021-06-09T16:59:32+02:00</time>
      </trkpt>
      <trkpt lat="45.41981" lon="4.48996">
        <ele>1001</ele>
        <time>2021-06-09T16:59:37+02:00</time>
      </trkpt>
      <trkpt lat="45.42037" lon="4.48871">
        <ele>1005</ele>
        <time>2021-06-09T16:59:42+02:00</time>
      </trkpt>
      <trkpt lat="45.42082" lon="4.4879">
        <ele>1004</ele>
        <time>2021-06-09T16:59:47+02:00</time>
      </trkpt>
      <trkpt lat="45.42068" lon="4.48708">
        <ele>1007</ele>
        <time>2021-06-09T16:59:52+02:00</time>
      </trkpt>
      <trkpt lat="45.42049" lon="4.48642">
        <ele>1006</ele>
        <time>2021-06-09T16:59:57+02:00</time>
      </trkpt>
      <trkpt lat="45.42029" lon="4.48573">
        <ele>1001</ele>
        <time>2021-06-09T17:00:02+02:00</time>
      </trkpt>
      <trkpt lat="45.41982" lon="4.48509">
        <ele>1000</ele>
        <time>2021-06-09T17:00:07+02:00</time>
      </trkpt>
      <trkpt lat="45.41925" lon="4.48472">
        <ele>1005</ele>
        <time>2021-06-09T17:00:12+02:00</time>
      </trkpt>
      <trkpt lat="45.41859" lon="4.48457">
        <ele>1016</ele>
        <time>2021-06-09T17:00:17+02:00</time>
      </trkpt>
      <trkpt lat="45.41815" lon="4.48391">
        <ele>1021</ele>
        <time>2021-06-09T17:00:22+02:00</time>
      </trkpt>
      <trkpt lat="45.41738" lon="4.48234">
        <ele>1043</ele>
        <time>2021-06-09T17:00:27+02:00</time>
      </trkpt>
      <trkpt lat="45.41713" lon="4.48163">
        <ele>1054</ele>
        <time>2021-06-09T17:00:32+02:00</time>
      </trkpt>
      <trkpt lat="45.41734" lon="4.48086">
        <ele>1057</ele>
        <time>2021-06-09T17:00:37+02:00</time>
      </trkpt>
      <trkpt lat="45.41808" lon="4.47998">
        <ele>1052</ele>
        <time>2021-06-09T17:00:42+02:00</time>
      </trkpt>
      <trkpt lat="45.41909" lon="4.47947">
        <ele>1033</ele>
        <time>2021-06-09T17:00:47+02:00</time>
      </trkpt>
      <trkpt lat="45.42025" lon="4.47899">
        <ele>1012</ele>
        <time>2021-06-09T17:00:52+02:00</time>
      </trkpt>
      <trkpt lat="45.4212" lon="4.47708">
        <ele>981</ele>
        <time>2021-06-09T17:00:57+02:00</time>
      </trkpt>
      <trkpt lat="45.4222" lon="4.47532">
        <ele>962</ele>
        <time>2021-06-09T17:01:02+02:00</time>
      </trkpt>
      <trkpt lat="45.42177" lon="4.47526">
        <ele>960</ele>
        <time>2021-06-09T17:01:07+02:00</time>
      </trkpt>
      <trkpt lat="45.41993" lon="4.47623">
        <ele>965</ele>
        <time>2021-06-09T17:01:12+02:00</time>
      </trkpt>
      <trkpt lat="45.41925" lon="4.4761">
        <ele>967</ele>
        <time>2021-06-09T17:01:17+02:00</time>
      </trkpt>
      <trkpt lat="45.41882" lon="4.47558">
        <ele>964</ele>
        <time>2021-06-09T17:01:22+02:00</time>
      </trkpt>
      <trkpt lat="45.41796" lon="4.47397">
        <ele>953</ele>
        <time>2021-06-09T17:01:27+02:00</time>
      </trkpt>
      <trkpt lat="45.41684" lon="4.4732">
        <ele>953</ele>
        <time>2021-06-09T17:01:32+02:00</time>
      </trkpt>
      <trkpt lat="45.41588" lon="4.47344">
        <ele>959</ele>
        <time>2021-06-09T17:01:37+02:00</time>
      </trkpt>
      <trkpt lat="45.41424" lon="4.47462">
        <ele>960</ele>
        <time>2021-06-09T17:01:42+02:00</time>
      </trkpt>
      <trkpt lat="45.41354" lon="4.47384">
        <ele>962</ele>
        <time>2021-06-09T17:01:47+02:00</time>
      </trkpt>
      <trkpt lat="45.41297" lon="4.47391">
        <ele>969</ele>
        <time>2021-06-09T17:01:52+02:00</time>
      </trkpt>
      <trkpt lat="45.41174" lon="4.47423">
        <ele>981</ele>
        <time>2021-06-09T17:01:57+02:00</time>
      </trkpt>
      <trkpt lat="45.41052" lon="4.47419">
        <ele>980</ele>
        <time>2021-06-09T17:02:02+02:00</time>
      </trkpt>
      <trkpt lat="45.41" lon="4.47447">
        <ele>985</ele>
        <time>2021-06-09T17:02:07+02:00</time>
      </trkpt>
      <trkpt lat="45.40901" lon="4.47459">
        <ele>998</ele>
        <time>2021-06-09T17:02:12+02:00</time>
      </trkpt>
      <trkpt lat="45.4089" lon="4.47344">
        <ele>991</ele>
        <time>2021-06-09T17:02:17+02:00</time>
      </trkpt>
      <trkpt lat="45.40881" lon="4.47273">
        <ele>987</ele>
        <time>2021-06-09T17:02:22+02:00</time>
      </trkpt>
      <trkpt lat="45.40854" lon="4.47228">
        <ele>987</ele>
        <time>2021-06-09T17:02:27+02:00</time>
      </trkpt>
      <trkpt lat="45.40817" lon="4.47202">
        <ele>988</ele>
        <time>2021-06-09T17:02:32+02:00</time>
      </trkpt>
      <trkpt lat="45.4068" lon="4.47183">
        <ele>999</ele>
        <time>2021-06-09T17:02:37+02:00</time>
      </trkpt>
      <trkpt lat="45.40526" lon="4.47159">
        <ele>1001</ele>
        <time>2021-06-09T17:02:42+02:00</time>
      </trkpt>
      <trkpt lat="45.40404" lon="4.47189">
        <ele>994</ele>
        <time>2021-06-09T17:02:47+02:00</time>
      </trkpt>
      <trkpt lat="45.40333" lon="4.47226">
        <ele>989</ele>
        <time>2021-06-09T17:02:52+02:00</time>
      </trkpt>
      <trkpt lat="45.40235" lon="4.47232">
        <ele>993</ele>
        <time>2021-06-09T17:02:57+02:00</time>
      </trkpt>
      <trkpt lat="45.40179" lon="4.47253">
        <ele>1002</ele>
        <time>2021-06-09T17:03:02+02:00</time>
      </trkpt>
      <trkpt lat="45.40133" lon="4.47241">
        <ele>1013</ele>
        <time>2021-06-09T17:03:07+02:00</time>
      </trkpt>
      <trkpt lat="45.40136" lon="4.47161">
        <ele>1014</ele>
        <time>2021-06-09T17:03:12+02:00</time>
      </trkpt>
      <trkpt lat="45.40148" lon="4.47101">
        <ele>1017</ele>
        <time>2021-06-09T17:03:17+02:00</time>
      </trkpt>
      <trkpt lat="45.40115" lon="4.47015">
        <ele>1032</ele>
        <time>2021-06-09T17:03:22+02:00</time>
      </trkpt>
      <trkpt lat="45.4013" lon="4.4699">
        <ele>1033</ele>
        <time>2021-06-09T17:03:27+02:00</time>
      </trkpt>
      <trkpt lat="45.40181" lon="4.46972">
        <ele>1026</ele>
        <time>2021-06-09T17:03:32+02:00</time>
      </trkpt>
      <trkpt lat="45.40199" lon="4.4694">
        <ele>1028</ele>
        <time>2021-06-09T17:03:37+02:00</time>
      </trkpt>
      <trkpt lat="45.40243" lon="4.46803">
        <ele>1039</ele>
        <time>2021-06-09T17:03:42+02:00</time>
      </trkpt>
      <trkpt lat="45.40261" lon="4.46743">
        <ele>1042</ele>
        <time>2021-06-09T17:03:47+02:00</time>
      </trkpt>
      <trkpt lat="45.40333" lon="4.46635">
        <ele>1040</ele>
        <time>2021-06-09T17:03:52+02:00</time>
      </trkpt>
      <trkpt lat="45.40401" lon="4.46575">
        <ele>1043</ele>
        <time>2021-06-09T17:03:57+02:00</time>
      </trkpt>
      <trkpt lat="45.40512" lon="4.46575">
        <ele>1043</ele>
        <time>2021-06-09T17:04:02+02:00</time>
      </trkpt>
      <trkpt lat="45.40607" lon="4.46584">
        <ele>1045</ele>
        <time>2021-06-09T17:04:07+02:00</time>
      </trkpt>
      <trkpt lat="45.40681" lon="4.4658">
        <ele>1045</ele>
        <time>2021-06-09T17:04:12+02:00</time>
      </trkpt>
      <trkpt lat="45.40677" lon="4.46556">
        <ele>1049</ele>
        <time>2021-06-09T17:04:17+02:00</time>
      </trkpt>
      <trkpt lat="45.40648" lon="4.46543">
        <ele>1051</ele>
        <time>2021-06-09T17:04:22+02:00</time>
      </trkpt>
      <trkpt lat="45.40564" lon="4.46517">
        <ele>1053</ele>
        <time>2021-06-09T17:04:27+02:00</time>
      </trkpt>
      <trkpt lat="45.40431" lon="4.46477">
        <ele>1050</ele>
        <time>2021-06-09T17:04:32+02:00</time>
      </trkpt>
      <trkpt lat="45.40312" lon="4.46487">
        <ele>1051</ele>
        <time>2021-06-09T17:04:37+02:00</time>
      </trkpt>
      <trkpt lat="45.4025" lon="4.46496">
        <ele>1054</ele>
        <time>2021-06-09T17:04:42+02:00</time>
      </trkpt>
      <trkpt lat="45.40149" lon="4.4647">
        <ele>1058</ele>
        <time>2021-06-09T17:04:47+02:00</time>
      </trkpt>
      <trkpt lat="45.40062" lon="4.4644">
        <ele>1062</ele>
        <time>2021-06-09T17:04:52+02:00</time>
      </trkpt>
      <trkpt lat="45.40011" lon="4.4641">
        <ele>1063</ele>
        <time>2021-06-09T17:04:57+02:00</time>
      </trkpt>
      <trkpt lat="45.39895" lon="4.46333">
        <ele>1066</ele>
        <time>2021-06-09T17:05:02+02:00</time>
      </trkpt>
      <trkpt lat="45.3987" lon="4.46318">
        <ele>1063</ele>
        <time>2021-06-09T17:05:07+02:00</time>
      </trkpt>
      <trkpt lat="45.39837" lon="4.46329">
        <ele>1062</ele>
        <time>2021-06-09T17:05:12+02:00</time>
      </trkpt>
      <trkpt lat="45.39812" lon="4.46399">
        <ele>1075</ele>
        <time>2021-06-09T17:05:17+02:00</time>
      </trkpt>
      <trkpt lat="45.39715" lon="4.46438">
        <ele>1081</ele>
        <time>2021-06-09T17:05:22+02:00</time>
      </trkpt>
      <trkpt lat="45.39569" lon="4.46492">
        <ele>1083</ele>
        <time>2021-06-09T17:05:27+02:00</time>
      </trkpt>
      <trkpt lat="45.39506" lon="4.46552">
        <ele>1086</ele>
        <time>2021-06-09T17:05:32+02:00</time>
      </trkpt>
      <trkpt lat="45.39415" lon="4.46859">
        <ele>1085</ele>
        <time>2021-06-09T17:05:37+02:00</time>
      </trkpt>
      <trkpt lat="45.39387" lon="4.46929">
        <ele>1086</ele>
        <time>2021-06-09T17:05:42+02:00</time>
      </trkpt>
      <trkpt lat="45.39283" lon="4.47011">
        <ele>1085</ele>
        <time>2021-06-09T17:05:47+02:00</time>
      </trkpt>
      <trkpt lat="45.39256" lon="4.47054">
        <ele>1083</ele>
        <time>2021-06-09T17:05:52+02:00</time>
      </trkpt>
      <trkpt lat="45.39244" lon="4.47165">
        <ele>1080</ele>
        <time>2021-06-09T17:05:57+02:00</time>
      </trkpt>
      <trkpt lat="45.39248" lon="4.47305">
        <ele>1087</ele>
        <time>2021-06-09T17:06:02+02:00</time>
      </trkpt>
      <trkpt lat="45.39235" lon="4.47459">
        <ele>1084</ele>
        <time>2021-06-09T17:06:07+02:00</time>
      </trkpt>
      <trkpt lat="45.39203" lon="4.47689">
        <ele>1073</ele>
        <time>2021-06-09T17:06:12+02:00</time>
      </trkpt>
      <trkpt lat="45.39165" lon="4.47822">
        <ele>1066</ele>
        <time>2021-06-09T17:06:17+02:00</time>
      </trkpt>
      <trkpt lat="45.39158" lon="4.47932">
        <ele>1055</ele>
        <time>2021-06-09T17:06:22+02:00</time>
      </trkpt>
      <trkpt lat="45.39143" lon="4.47985">
        <ele>1050</ele>
        <time>2021-06-09T17:06:27+02:00</time>
      </trkpt>
      <trkpt lat="45.39067" lon="4.48099">
        <ele>1043</ele>
        <time>2021-06-09T17:06:32+02:00</time>
      </trkpt>
      <trkpt lat="45.39082" lon="4.48099">
        <ele>1044</ele>
        <time>2021-06-09T17:06:37+02:00</time>
      </trkpt>
    </trkseg>
  </trk>
  <trk>
    <name><![CDATA[Les ruines du château du toile]]></name>
    <extensions>
      <line xmlns="http://www.topografix.com/GPX/gpx_style/0/2">
        <color>FF0000</color>
        <width>4</width>
      </line>
    </extensions>
    <trkseg>
      <trkpt lat="45.39088" lon="4.48086">
        <ele>1045</ele>
        <time>2021-06-09T16:55:30+02:00</time>
      </trkpt>
      <trkpt lat="45.39033" lon="4.48157">
        <ele>1040</ele>
        <time>2021-06-09T16:55:35+02:00</time>
      </trkpt>
      <trkpt lat="45.38968" lon="4.4824">
        <ele>1037</ele>
        <time>2021-06-09T16:55:40+02:00</time>
      </trkpt>
      <trkpt lat="45.38992" lon="4.48294">
        <ele>1034</ele>
        <time>2021-06-09T16:55:45+02:00</time>
      </trkpt>
      <trkpt lat="45.38991" lon="4.4836">
        <ele>1031</ele>
        <time>2021-06-09T16:55:50+02:00</time>
      </trkpt>
      <trkpt lat="45.38975" lon="4.48438">
        <ele>1030</ele>
        <time>2021-06-09T16:55:55+02:00</time>
      </trkpt>
      <trkpt lat="45.3903" lon="4.48431">
        <ele>1020</ele>
        <time>2021-06-09T16:56:00+02:00</time>
      </trkpt>
      <trkpt lat="45.39096" lon="4.48402">
        <ele>1008</ele>
        <time>2021-06-09T16:56:05+02:00</time>
      </trkpt>
      <trkpt lat="45.39138" lon="4.48377">
        <ele>1002</ele>
        <time>2021-06-09T16:56:10+02:00</time>
      </trkpt>
      <trkpt lat="45.39213" lon="4.48396">
        <ele>986</ele>
        <time>2021-06-09T16:56:15+02:00</time>
      </trkpt>
      <trkpt lat="45.39264" lon="4.48388">
        <ele>980</ele>
        <time>2021-06-09T16:56:20+02:00</time>
      </trkpt>
      <trkpt lat="45.39296" lon="4.4837">
        <ele>980</ele>
        <time>2021-06-09T16:56:25+02:00</time>
      </trkpt>
      <trkpt lat="45.39321" lon="4.48372">
        <ele>975</ele>
        <time>2021-06-09T16:56:30+02:00</time>
      </trkpt>
      <trkpt lat="45.39366" lon="4.48412">
        <ele>958</ele>
        <time>2021-06-09T16:56:35+02:00</time>
      </trkpt>
      <trkpt lat="45.39441" lon="4.48441">
        <ele>942</ele>
        <time>2021-06-09T16:56:40+02:00</time>
      </trkpt>
      <trkpt lat="45.39503" lon="4.48464">
        <ele>931</ele>
        <time>2021-06-09T16:56:45+02:00</time>
      </trkpt>
      <trkpt lat="45.39541" lon="4.48453">
        <ele>924</ele>
        <time>2021-06-09T16:56:50+02:00</time>
      </trkpt>
      <trkpt lat="45.39618" lon="4.48412">
        <ele>910</ele>
        <time>2021-06-09T16:56:55+02:00</time>
      </trkpt>
      <trkpt lat="45.39646" lon="4.48425">
        <ele>899</ele>
        <time>2021-06-09T16:57:00+02:00</time>
      </trkpt>
      <trkpt lat="45.3967" lon="4.48411">
        <ele>894</ele>
        <time>2021-06-09T16:57:05+02:00</time>
      </trkpt>
      <trkpt lat="45.39721" lon="4.48459">
        <ele>879</ele>
        <time>2021-06-09T16:57:10+02:00</time>
      </trkpt>
      <trkpt lat="45.39731" lon="4.48493">
        <ele>875</ele>
        <time>2021-06-09T16:57:15+02:00</time>
      </trkpt>
      <trkpt lat="45.39741" lon="4.48683">
        <ele>846</ele>
        <time>2021-06-09T16:57:20+02:00</time>
      </trkpt>
      <trkpt lat="45.39768" lon="4.48773">
        <ele>830</ele>
        <time>2021-06-09T16:57:25+02:00</time>
      </trkpt>
      <trkpt lat="45.398" lon="4.48805">
        <ele>819</ele>
        <time>2021-06-09T16:57:30+02:00</time>
      </trkpt>
      <trkpt lat="45.39807" lon="4.48841">
        <ele>812</ele>
        <time>2021-06-09T16:57:35+02:00</time>
      </trkpt>
      <trkpt lat="45.39802" lon="4.48879">
        <ele>803</ele>
        <time>2021-06-09T16:57:40+02:00</time>
      </trkpt>
      <trkpt lat="45.39799" lon="4.48899">
        <ele>799</ele>
        <time>2021-06-09T16:57:45+02:00</time>
      </trkpt>
      <trkpt lat="45.39812" lon="4.48919">
        <ele>794</ele>
        <time>2021-06-09T16:57:50+02:00</time>
      </trkpt>
      <trkpt lat="45.3983" lon="4.4894">
        <ele>789</ele>
        <time>2021-06-09T16:57:55+02:00</time>
      </trkpt>
      <trkpt lat="45.39858" lon="4.48944">
        <ele>783</ele>
        <time>2021-06-09T16:58:00+02:00</time>
      </trkpt>
      <trkpt lat="45.39881" lon="4.48935">
        <ele>781</ele>
        <time>2021-06-09T16:58:05+02:00</time>
      </trkpt>
      <trkpt lat="45.39906" lon="4.48974">
        <ele>771</ele>
        <time>2021-06-09T16:58:10+02:00</time>
      </trkpt>
      <trkpt lat="45.39931" lon="4.49002">
        <ele>764</ele>
        <time>2021-06-09T16:58:15+02:00</time>
      </trkpt>
      <trkpt lat="45.39936" lon="4.49024">
        <ele>759</ele>
        <time>2021-06-09T16:58:20+02:00</time>
      </trkpt>
      <trkpt lat="45.3993" lon="4.49069">
        <ele>751</ele>
        <time>2021-06-09T16:58:25+02:00</time>
      </trkpt>
      <trkpt lat="45.3995" lon="4.49098">
        <ele>745</ele>
        <time>2021-06-09T16:58:30+02:00</time>
      </trkpt>
      <trkpt lat="45.3998" lon="4.49102">
        <ele>744</ele>
        <time>2021-06-09T16:58:35+02:00</time>
      </trkpt>
      <trkpt lat="45.39994" lon="4.49113">
        <ele>743</ele>
        <time>2021-06-09T16:58:40+02:00</time>
      </trkpt>
      <trkpt lat="45.39998" lon="4.49154">
        <ele>738</ele>
        <time>2021-06-09T16:58:45+02:00</time>
      </trkpt>
      <trkpt lat="45.4002" lon="4.49185">
        <ele>730</ele>
        <time>2021-06-09T16:58:50+02:00</time>
      </trkpt>
      <trkpt lat="45.40051" lon="4.49182">
        <ele>726</ele>
        <time>2021-06-09T16:58:55+02:00</time>
      </trkpt>
      <trkpt lat="45.4008" lon="4.4915">
        <ele>723</ele>
        <time>2021-06-09T16:59:00+02:00</time>
      </trkpt>
      <trkpt lat="45.40113" lon="4.49092">
        <ele>716</ele>
        <time>2021-06-09T16:59:05+02:00</time>
      </trkpt>
      <trkpt lat="45.40151" lon="4.49018">
        <ele>712</ele>
        <time>2021-06-09T16:59:10+02:00</time>
      </trkpt>
      <trkpt lat="45.4017" lon="4.48973">
        <ele>716</ele>
        <time>2021-06-09T16:59:15+02:00</time>
      </trkpt>
      <trkpt lat="45.40178" lon="4.49001">
        <ele>713</ele>
        <time>2021-06-09T16:59:20+02:00</time>
      </trkpt>
      <trkpt lat="45.40188" lon="4.49123">
        <ele>701</ele>
        <time>2021-06-09T16:59:25+02:00</time>
      </trkpt>
      <trkpt lat="45.40198" lon="4.49167">
        <ele>697</ele>
        <time>2021-06-09T16:59:30+02:00</time>
      </trkpt>
      <trkpt lat="45.40245" lon="4.49215">
        <ele>689</ele>
        <time>2021-06-09T16:59:35+02:00</time>
      </trkpt>
      <trkpt lat="45.40312" lon="4.49276">
        <ele>678</ele>
        <time>2021-06-09T16:59:40+02:00</time>
      </trkpt>
      <trkpt lat="45.4034" lon="4.49303">
        <ele>675</ele>
        <time>2021-06-09T16:59:45+02:00</time>
      </trkpt>
      <trkpt lat="45.40327" lon="4.49592">
        <ele>660</ele>
        <time>2021-06-09T16:59:50+02:00</time>
      </trkpt>
      <trkpt lat="45.40313" lon="4.49609">
        <ele>658</ele>
        <time>2021-06-09T16:59:55+02:00</time>
      </trkpt>
      <trkpt lat="45.40249" lon="4.49678">
        <ele>641</ele>
        <time>2021-06-09T17:00:00+02:00</time>
      </trkpt>
      <trkpt lat="45.40229" lon="4.49738">
        <ele>639</ele>
        <time>2021-06-09T17:00:05+02:00</time>
      </trkpt>
      <trkpt lat="45.4021" lon="4.49816">
        <ele>628</ele>
        <time>2021-06-09T17:00:10+02:00</time>
      </trkpt>
      <trkpt lat="45.40201" lon="4.49864">
        <ele>623</ele>
        <time>2021-06-09T17:00:15+02:00</time>
      </trkpt>
      <trkpt lat="45.40123" lon="4.49833">
        <ele>634</ele>
        <time>2021-06-09T17:00:20+02:00</time>
      </trkpt>
      <trkpt lat="45.40066" lon="4.49847">
        <ele>641</ele>
        <time>2021-06-09T17:00:25+02:00</time>
      </trkpt>
      <trkpt lat="45.40019" lon="4.4987">
        <ele>646</ele>
        <time>2021-06-09T17:00:30+02:00</time>
      </trkpt>
      <trkpt lat="45.39964" lon="4.49931">
        <ele>651</ele>
        <time>2021-06-09T17:00:35+02:00</time>
      </trkpt>
      <trkpt lat="45.39909" lon="4.49978">
        <ele>657</ele>
        <time>2021-06-09T17:00:40+02:00</time>
      </trkpt>
      <trkpt lat="45.39895" lon="4.49989">
        <ele>660</ele>
        <time>2021-06-09T17:00:45+02:00</time>
      </trkpt>
      <trkpt lat="45.39862" lon="4.50051">
        <ele>667</ele>
        <time>2021-06-09T17:00:50+02:00</time>
      </trkpt>
      <trkpt lat="45.39836" lon="4.50081">
        <ele>665</ele>
        <time>2021-06-09T17:00:55+02:00</time>
      </trkpt>
      <trkpt lat="45.39817" lon="4.50147">
        <ele>672</ele>
        <time>2021-06-09T17:01:00+02:00</time>
      </trkpt>
      <trkpt lat="45.39784" lon="4.50185">
        <ele>676</ele>
        <time>2021-06-09T17:01:05+02:00</time>
      </trkpt>
      <trkpt lat="45.39755" lon="4.50194">
        <ele>675</ele>
        <time>2021-06-09T17:01:10+02:00</time>
      </trkpt>
      <trkpt lat="45.39647" lon="4.50202">
        <ele>684</ele>
        <time>2021-06-09T17:01:15+02:00</time>
      </trkpt>
      <trkpt lat="45.39557" lon="4.50204">
        <ele>692</ele>
        <time>2021-06-09T17:01:20+02:00</time>
      </trkpt>
      <trkpt lat="45.39442" lon="4.50184">
        <ele>703</ele>
        <time>2021-06-09T17:01:25+02:00</time>
      </trkpt>
      <trkpt lat="45.39359" lon="4.50207">
        <ele>706</ele>
        <time>2021-06-09T17:01:30+02:00</time>
      </trkpt>
      <trkpt lat="45.39252" lon="4.5021">
        <ele>722</ele>
        <time>2021-06-09T17:01:35+02:00</time>
      </trkpt>
      <trkpt lat="45.39157" lon="4.50241">
        <ele>726</ele>
        <time>2021-06-09T17:01:40+02:00</time>
      </trkpt>
      <trkpt lat="45.39038" lon="4.50254">
        <ele>731</ele>
        <time>2021-06-09T17:01:45+02:00</time>
      </trkpt>
      <trkpt lat="45.38932" lon="4.5015">
        <ele>763</ele>
        <time>2021-06-09T17:01:50+02:00</time>
      </trkpt>
      <trkpt lat="45.38852" lon="4.50049">
        <ele>791</ele>
        <time>2021-06-09T17:01:55+02:00</time>
      </trkpt>
      <trkpt lat="45.38837" lon="4.50039">
        <ele>793</ele>
        <time>2021-06-09T17:02:00+02:00</time>
      </trkpt>
      <trkpt lat="45.38815" lon="4.50047">
        <ele>796</ele>
        <time>2021-06-09T17:02:05+02:00</time>
      </trkpt>
      <trkpt lat="45.38812" lon="4.50066">
        <ele>795</ele>
        <time>2021-06-09T17:02:10+02:00</time>
      </trkpt>
      <trkpt lat="45.38876" lon="4.50196">
        <ele>777</ele>
        <time>2021-06-09T17:02:15+02:00</time>
      </trkpt>
      <trkpt lat="45.38873" lon="4.50231">
        <ele>777</ele>
        <time>2021-06-09T17:02:20+02:00</time>
      </trkpt>
      <trkpt lat="45.3885" lon="4.50273">
        <ele>782</ele>
        <time>2021-06-09T17:02:25+02:00</time>
      </trkpt>
      <trkpt lat="45.38816" lon="4.50325">
        <ele>786</ele>
        <time>2021-06-09T17:02:30+02:00</time>
      </trkpt>
      <trkpt lat="45.38779" lon="4.50458">
        <ele>780</ele>
        <time>2021-06-09T17:02:35+02:00</time>
      </trkpt>
      <trkpt lat="45.38726" lon="4.50558">
        <ele>780</ele>
        <time>2021-06-09T17:02:40+02:00</time>
      </trkpt>
      <trkpt lat="45.38689" lon="4.5065">
        <ele>775</ele>
        <time>2021-06-09T17:02:45+02:00</time>
      </trkpt>
      <trkpt lat="45.38682" lon="4.50701">
        <ele>776</ele>
        <time>2021-06-09T17:02:50+02:00</time>
      </trkpt>
      <trkpt lat="45.3863" lon="4.50769">
        <ele>788</ele>
        <time>2021-06-09T17:02:55+02:00</time>
      </trkpt>
      <trkpt lat="45.38594" lon="4.50835">
        <ele>794</ele>
        <time>2021-06-09T17:03:00+02:00</time>
      </trkpt>
      <trkpt lat="45.38534" lon="4.50953">
        <ele>805</ele>
        <time>2021-06-09T17:03:05+02:00</time>
      </trkpt>
      <trkpt lat="45.38454" lon="4.51092">
        <ele>820</ele>
        <time>2021-06-09T17:03:10+02:00</time>
      </trkpt>
      <trkpt lat="45.38388" lon="4.51165">
        <ele>828</ele>
        <time>2021-06-09T17:03:15+02:00</time>
      </trkpt>
      <trkpt lat="45.38357" lon="4.51191">
        <ele>833</ele>
        <time>2021-06-09T17:03:20+02:00</time>
      </trkpt>
      <trkpt lat="45.38321" lon="4.51222">
        <ele>838</ele>
        <time>2021-06-09T17:03:25+02:00</time>
      </trkpt>
      <trkpt lat="45.38286" lon="4.51228">
        <ele>840</ele>
        <time>2021-06-09T17:03:30+02:00</time>
      </trkpt>
      <trkpt lat="45.38269" lon="4.51241">
        <ele>841</ele>
        <time>2021-06-09T17:03:35+02:00</time>
      </trkpt>
      <trkpt lat="45.38259" lon="4.51268">
        <ele>843</ele>
        <time>2021-06-09T17:03:40+02:00</time>
      </trkpt>
      <trkpt lat="45.3822" lon="4.5132">
        <ele>855</ele>
        <time>2021-06-09T17:03:45+02:00</time>
      </trkpt>
      <trkpt lat="45.3819" lon="4.51419">
        <ele>864</ele>
        <time>2021-06-09T17:03:50+02:00</time>
      </trkpt>
      <trkpt lat="45.38167" lon="4.51463">
        <ele>865</ele>
        <time>2021-06-09T17:03:55+02:00</time>
      </trkpt>
      <trkpt lat="45.38147" lon="4.51537">
        <ele>874</ele>
        <time>2021-06-09T17:04:00+02:00</time>
      </trkpt>
      <trkpt lat="45.38116" lon="4.51578">
        <ele>877</ele>
        <time>2021-06-09T17:04:05+02:00</time>
      </trkpt>
      <trkpt lat="45.38073" lon="4.51608">
        <ele>880</ele>
        <time>2021-06-09T17:04:10+02:00</time>
      </trkpt>
      <trkpt lat="45.38005" lon="4.51649">
        <ele>888</ele>
        <time>2021-06-09T17:04:15+02:00</time>
      </trkpt>
      <trkpt lat="45.37957" lon="4.51713">
        <ele>899</ele>
        <time>2021-06-09T17:04:20+02:00</time>
      </trkpt>
      <trkpt lat="45.3791" lon="4.51775">
        <ele>903</ele>
        <time>2021-06-09T17:04:25+02:00</time>
      </trkpt>
      <trkpt lat="45.3797" lon="4.51734">
        <ele>900</ele>
        <time>2021-06-09T17:04:30+02:00</time>
      </trkpt>
      <trkpt lat="45.38017" lon="4.5169">
        <ele>892</ele>
        <time>2021-06-09T17:04:35+02:00</time>
      </trkpt>
      <trkpt lat="45.38072" lon="4.51716">
        <ele>901</ele>
        <time>2021-06-09T17:04:40+02:00</time>
      </trkpt>
      <trkpt lat="45.38106" lon="4.51759">
        <ele>915</ele>
        <time>2021-06-09T17:04:45+02:00</time>
      </trkpt>
      <trkpt lat="45.38134" lon="4.5175">
        <ele>916</ele>
        <time>2021-06-09T17:04:50+02:00</time>
      </trkpt>
      <trkpt lat="45.38167" lon="4.51717">
        <ele>913</ele>
        <time>2021-06-09T17:04:55+02:00</time>
      </trkpt>
      <trkpt lat="45.38214" lon="4.51674">
        <ele>918</ele>
        <time>2021-06-09T17:05:00+02:00</time>
      </trkpt>
      <trkpt lat="45.38166" lon="4.51789">
        <ele>929</ele>
        <time>2021-06-09T17:05:05+02:00</time>
      </trkpt>
      <trkpt lat="45.38124" lon="4.51865">
        <ele>945</ele>
        <time>2021-06-09T17:05:10+02:00</time>
      </trkpt>
      <trkpt lat="45.38091" lon="4.51884">
        <ele>947</ele>
        <time>2021-06-09T17:05:15+02:00</time>
      </trkpt>
      <trkpt lat="45.38047" lon="4.51861">
        <ele>942</ele>
        <time>2021-06-09T17:05:20+02:00</time>
      </trkpt>
      <trkpt lat="45.38003" lon="4.51884">
        <ele>952</ele>
        <time>2021-06-09T17:05:25+02:00</time>
      </trkpt>
      <trkpt lat="45.37961" lon="4.5196">
        <ele>963</ele>
        <time>2021-06-09T17:05:30+02:00</time>
      </trkpt>
      <trkpt lat="45.37961" lon="4.51974">
        <ele>966</ele>
        <time>2021-06-09T17:05:35+02:00</time>
      </trkpt>
      <trkpt lat="45.38" lon="4.51963">
        <ele>975</ele>
        <time>2021-06-09T17:05:40+02:00</time>
      </trkpt>
      <trkpt lat="45.38016" lon="4.51984">
        <ele>978</ele>
        <time>2021-06-09T17:05:45+02:00</time>
      </trkpt>
      <trkpt lat="45.38007" lon="4.52007">
        <ele>984</ele>
        <time>2021-06-09T17:05:50+02:00</time>
      </trkpt>
      <trkpt lat="45.37999" lon="4.52033">
        <ele>988</ele>
        <time>2021-06-09T17:05:55+02:00</time>
      </trkpt>
      <trkpt lat="45.38034" lon="4.52111">
        <ele>1003</ele>
        <time>2021-06-09T17:06:00+02:00</time>
      </trkpt>
      <trkpt lat="45.38012" lon="4.52123">
        <ele>1003</ele>
        <time>2021-06-09T17:06:05+02:00</time>
      </trkpt>
      <trkpt lat="45.37999" lon="4.52136">
        <ele>1003</ele>
        <time>2021-06-09T17:06:10+02:00</time>
      </trkpt>
      <trkpt lat="45.38008" lon="4.52243">
        <ele>1019</ele>
        <time>2021-06-09T17:06:15+02:00</time>
      </trkpt>
      <trkpt lat="45.38022" lon="4.52221">
        <ele>1019</ele>
        <time>2021-06-09T17:06:20+02:00</time>
      </trkpt>
      <trkpt lat="45.38055" lon="4.52206">
        <ele>1024</ele>
        <time>2021-06-09T17:06:25+02:00</time>
      </trkpt>
      <trkpt lat="45.3809" lon="4.52209">
        <ele>1031</ele>
        <time>2021-06-09T17:06:30+02:00</time>
      </trkpt>
      <trkpt lat="45.38133" lon="4.52195">
        <ele>1036</ele>
        <time>2021-06-09T17:06:35+02:00</time>
      </trkpt>
      <trkpt lat="45.38211" lon="4.52144">
        <ele>1040</ele>
        <time>2021-06-09T17:06:40+02:00</time>
      </trkpt>
      <trkpt lat="45.38272" lon="4.52101">
        <ele>1046</ele>
        <time>2021-06-09T17:06:45+02:00</time>
      </trkpt>
      <trkpt lat="45.3833" lon="4.52053">
        <ele>1050</ele>
        <time>2021-06-09T17:06:50+02:00</time>
      </trkpt>
      <trkpt lat="45.38352" lon="4.5202">
        <ele>1050</ele>
        <time>2021-06-09T17:06:55+02:00</time>
      </trkpt>
      <trkpt lat="45.38369" lon="4.52019">
        <ele>1057</ele>
        <time>2021-06-09T17:07:00+02:00</time>
      </trkpt>
      <trkpt lat="45.38311" lon="4.52133">
        <ele>1065.5</ele>
        <time>2021-06-09T17:07:05+02:00</time>
      </trkpt>
      <trkpt lat="45.38246" lon="4.52287">
        <ele>1087</ele>
        <time>2021-06-09T17:07:10+02:00</time>
      </trkpt>
      <trkpt lat="45.38207" lon="4.52334">
        <ele>1089</ele>
        <time>2021-06-09T17:07:15+02:00</time>
      </trkpt>
      <trkpt lat="45.38155" lon="4.52431">
        <ele>1096</ele>
        <time>2021-06-09T17:07:20+02:00</time>
      </trkpt>
      <trkpt lat="45.38097" lon="4.52521">
        <ele>1096</ele>
        <time>2021-06-09T17:07:25+02:00</time>
      </trkpt>
      <trkpt lat="45.38085" lon="4.52591">
        <ele>1107</ele>
        <time>2021-06-09T17:07:30+02:00</time>
      </trkpt>
      <trkpt lat="45.38062" lon="4.52643">
        <ele>1106</ele>
        <time>2021-06-09T17:07:35+02:00</time>
      </trkpt>
      <trkpt lat="45.38049" lon="4.52819">
        <ele>1110</ele>
        <time>2021-06-09T17:07:40+02:00</time>
      </trkpt>
      <trkpt lat="45.38038" lon="4.52734">
        <ele>1107</ele>
        <time>2021-06-09T17:07:45+02:00</time>
      </trkpt>
      <trkpt lat="45.38012" lon="4.52726">
        <ele>1101</ele>
        <time>2021-06-09T17:07:50+02:00</time>
      </trkpt>
      <trkpt lat="45.37993" lon="4.52725">
        <ele>1098</ele>
        <time>2021-06-09T17:07:55+02:00</time>
      </trkpt>
      <trkpt lat="45.37959" lon="4.5269">
        <ele>1089</ele>
        <time>2021-06-09T17:08:00+02:00</time>
      </trkpt>
      <trkpt lat="45.37848" lon="4.52625">
        <ele>1070</ele>
        <time>2021-06-09T17:08:05+02:00</time>
      </trkpt>
      <trkpt lat="45.37786" lon="4.52563">
        <ele>1064</ele>
        <time>2021-06-09T17:08:10+02:00</time>
      </trkpt>
      <trkpt lat="45.37755" lon="4.52445">
        <ele>1055</ele>
        <time>2021-06-09T17:08:15+02:00</time>
      </trkpt>
      <trkpt lat="45.37739" lon="4.5241">
        <ele>1054</ele>
        <time>2021-06-09T17:08:20+02:00</time>
      </trkpt>
      <trkpt lat="45.37645" lon="4.52346">
        <ele>1046</ele>
        <time>2021-06-09T17:08:25+02:00</time>
      </trkpt>
      <trkpt lat="45.37583" lon="4.52362">
        <ele>1053</ele>
        <time>2021-06-09T17:08:30+02:00</time>
      </trkpt>
      <trkpt lat="45.37527" lon="4.52364">
        <ele>1056</ele>
        <time>2021-06-09T17:08:35+02:00</time>
      </trkpt>
      <trkpt lat="45.37423" lon="4.52352">
        <ele>1067</ele>
        <time>2021-06-09T17:08:40+02:00</time>
      </trkpt>
      <trkpt lat="45.3735" lon="4.52314">
        <ele>1066</ele>
        <time>2021-06-09T17:08:45+02:00</time>
      </trkpt>
      <trkpt lat="45.37315" lon="4.52305">
        <ele>1068</ele>
        <time>2021-06-09T17:08:50+02:00</time>
      </trkpt>
      <trkpt lat="45.3724" lon="4.52377">
        <ele>1089</ele>
        <time>2021-06-09T17:08:55+02:00</time>
      </trkpt>
      <trkpt lat="45.37204" lon="4.52394">
        <ele>1097</ele>
        <time>2021-06-09T17:09:00+02:00</time>
      </trkpt>
      <trkpt lat="45.37177" lon="4.5238">
        <ele>1098</ele>
        <time>2021-06-09T17:09:05+02:00</time>
      </trkpt>
      <trkpt lat="45.37171" lon="4.5235">
        <ele>1096</ele>
        <time>2021-06-09T17:09:10+02:00</time>
      </trkpt>
      <trkpt lat="45.37194" lon="4.52247">
        <ele>1094</ele>
        <time>2021-06-09T17:09:15+02:00</time>
      </trkpt>
      <trkpt lat="45.37199" lon="4.52153">
        <ele>1098</ele>
        <time>2021-06-09T17:09:20+02:00</time>
      </trkpt>
      <trkpt lat="45.37192" lon="4.52108">
        <ele>1103</ele>
        <time>2021-06-09T17:09:25+02:00</time>
      </trkpt>
      <trkpt lat="45.37173" lon="4.52044">
        <ele>1109</ele>
        <time>2021-06-09T17:09:30+02:00</time>
      </trkpt>
      <trkpt lat="45.37124" lon="4.5199">
        <ele>1120</ele>
        <time>2021-06-09T17:09:35+02:00</time>
      </trkpt>
      <trkpt lat="45.37041" lon="4.51902">
        <ele>1131</ele>
        <time>2021-06-09T17:09:40+02:00</time>
      </trkpt>
      <trkpt lat="45.37023" lon="4.51874">
        <ele>1136</ele>
        <time>2021-06-09T17:09:45+02:00</time>
      </trkpt>
      <trkpt lat="45.37022" lon="4.51849">
        <ele>1136</ele>
        <time>2021-06-09T17:09:50+02:00</time>
      </trkpt>
      <trkpt lat="45.37039" lon="4.51797">
        <ele>1134</ele>
        <time>2021-06-09T17:09:55+02:00</time>
      </trkpt>
      <trkpt lat="45.37049" lon="4.51606">
        <ele>1152</ele>
        <time>2021-06-09T17:10:00+02:00</time>
      </trkpt>
      <trkpt lat="45.37077" lon="4.5145">
        <ele>1163</ele>
        <time>2021-06-09T17:10:05+02:00</time>
      </trkpt>
      <trkpt lat="45.37085" lon="4.51304">
        <ele>1165</ele>
        <time>2021-06-09T17:10:10+02:00</time>
      </trkpt>
      <trkpt lat="45.37077" lon="4.51282">
        <ele>1165</ele>
        <time>2021-06-09T17:10:15+02:00</time>
      </trkpt>
      <trkpt lat="45.3714" lon="4.51193">
        <ele>1169</ele>
        <time>2021-06-09T17:10:20+02:00</time>
      </trkpt>
      <trkpt lat="45.37173" lon="4.51126">
        <ele>1173</ele>
        <time>2021-06-09T17:10:25+02:00</time>
      </trkpt>
      <trkpt lat="45.37189" lon="4.51049">
        <ele>1176</ele>
        <time>2021-06-09T17:10:30+02:00</time>
      </trkpt>
      <trkpt lat="45.37204" lon="4.50906">
        <ele>1183</ele>
        <time>2021-06-09T17:10:35+02:00</time>
      </trkpt>
      <trkpt lat="45.37192" lon="4.50796">
        <ele>1185</ele>
        <time>2021-06-09T17:10:40+02:00</time>
      </trkpt>
      <trkpt lat="45.37206" lon="4.50698">
        <ele>1184</ele>
        <time>2021-06-09T17:10:45+02:00</time>
      </trkpt>
      <trkpt lat="45.37243" lon="4.50584">
        <ele>1177</ele>
        <time>2021-06-09T17:10:50+02:00</time>
      </trkpt>
      <trkpt lat="45.37339" lon="4.50413">
        <ele>1167</ele>
        <time>2021-06-09T17:10:55+02:00</time>
      </trkpt>
      <trkpt lat="45.37375" lon="4.50357">
        <ele>1166</ele>
        <time>2021-06-09T17:11:00+02:00</time>
      </trkpt>
      <trkpt lat="45.37375" lon="4.50322">
        <ele>1164</ele>
        <time>2021-06-09T17:11:05+02:00</time>
      </trkpt>
      <trkpt lat="45.37396" lon="4.5032">
        <ele>1166</ele>
        <time>2021-06-09T17:11:10+02:00</time>
      </trkpt>
      <trkpt lat="45.37424" lon="4.50303">
        <ele>1167</ele>
        <time>2021-06-09T17:11:15+02:00</time>
      </trkpt>
      <trkpt lat="45.37502" lon="4.50148">
        <ele>1161</ele>
        <time>2021-06-09T17:11:20+02:00</time>
      </trkpt>
      <trkpt lat="45.37624" lon="4.4995">
        <ele>1154</ele>
        <time>2021-06-09T17:11:25+02:00</time>
      </trkpt>
      <trkpt lat="45.37639" lon="4.49908">
        <ele>1152</ele>
        <time>2021-06-09T17:11:30+02:00</time>
      </trkpt>
      <trkpt lat="45.37675" lon="4.49715">
        <ele>1140</ele>
        <time>2021-06-09T17:11:35+02:00</time>
      </trkpt>
      <trkpt lat="45.37703" lon="4.49654">
        <ele>1137</ele>
        <time>2021-06-09T17:11:40+02:00</time>
      </trkpt>
      <trkpt lat="45.37721" lon="4.49598">
        <ele>1135</ele>
        <time>2021-06-09T17:11:45+02:00</time>
      </trkpt>
      <trkpt lat="45.3779" lon="4.49498">
        <ele>1129</ele>
        <time>2021-06-09T17:11:50+02:00</time>
      </trkpt>
      <trkpt lat="45.37853" lon="4.49418">
        <ele>1126</ele>
        <time>2021-06-09T17:11:55+02:00</time>
      </trkpt>
      <trkpt lat="45.38028" lon="4.49185">
        <ele>1105</ele>
        <time>2021-06-09T17:12:00+02:00</time>
      </trkpt>
      <trkpt lat="45.38167" lon="4.49111">
        <ele>1097</ele>
        <time>2021-06-09T17:12:05+02:00</time>
      </trkpt>
      <trkpt lat="45.38262" lon="4.49038">
        <ele>1090</ele>
        <time>2021-06-09T17:12:10+02:00</time>
      </trkpt>
      <trkpt lat="45.38342" lon="4.48975">
        <ele>1088</ele>
        <time>2021-06-09T17:12:15+02:00</time>
      </trkpt>
      <trkpt lat="45.38421" lon="4.48872">
        <ele>1089</ele>
        <time>2021-06-09T17:12:20+02:00</time>
      </trkpt>
      <trkpt lat="45.38445" lon="4.4885">
        <ele>1086</ele>
        <time>2021-06-09T17:12:25+02:00</time>
      </trkpt>
      <trkpt lat="45.38485" lon="4.48754">
        <ele>1088</ele>
        <time>2021-06-09T17:12:30+02:00</time>
      </trkpt>
      <trkpt lat="45.38552" lon="4.48653">
        <ele>1094</ele>
        <time>2021-06-09T17:12:35+02:00</time>
      </trkpt>
      <trkpt lat="45.38589" lon="4.48622">
        <ele>1092</ele>
        <time>2021-06-09T17:12:40+02:00</time>
      </trkpt>
      <trkpt lat="45.38633" lon="4.4856">
        <ele>1084</ele>
        <time>2021-06-09T17:12:45+02:00</time>
      </trkpt>
      <trkpt lat="45.38649" lon="4.4852">
        <ele>1078</ele>
        <time>2021-06-09T17:12:50+02:00</time>
      </trkpt>
      <trkpt lat="45.38764" lon="4.48431">
        <ele>1055</ele>
        <time>2021-06-09T17:12:55+02:00</time>
      </trkpt>
      <trkpt lat="45.38816" lon="4.48395">
        <ele>1046</ele>
        <time>2021-06-09T17:13:00+02:00</time>
      </trkpt>
      <trkpt lat="45.3884" lon="4.48389">
        <ele>1043</ele>
        <time>2021-06-09T17:13:05+02:00</time>
      </trkpt>
      <trkpt lat="45.38876" lon="4.48355">
        <ele>1040</ele>
        <time>2021-06-09T17:13:10+02:00</time>
      </trkpt>
      <trkpt lat="45.38929" lon="4.48292">
        <ele>1037</ele>
        <time>2021-06-09T17:13:15+02:00</time>
      </trkpt>
      <trkpt lat="45.38972" lon="4.48235">
        <ele>1038</ele>
        <time>2021-06-09T17:13:20+02:00</time>
      </trkpt>
      <trkpt lat="45.39089" lon="4.48081">
        <ele>1045</ele>
        <time>2021-06-09T17:13:25+02:00</time>
      </trkpt>
      <trkpt lat="45.3909" lon="4.48081">
        <ele>1045</ele>
        <time>2021-06-09T17:13:30+02:00</time>
      </trkpt>
    </trkseg>
  </trk>
</gpx>